UAL153A VHHH-KLAX
Flight info
| Callsign | UAL153A |
|---|---|
| Flight time | 11h 37m |
| Altitude | 35000 |
| Route | DALOL V631 ENVAR M750 MUKEP Y891 OVSUN/N0493F360 Y893 IGMIS/N0494F350 Y57 POROT Y809 IDLAN Y812 ADNAP OTR5 KALNA DCT 41N160E/N0489F370 41N170E 41N180E 39N170W 36N160W 34N150W/N0476F390 33N145W 33N140W DCT CUNDU DCT ADUMM DCT AUDIA DCT SNAXX RYDRR2 |
| Aircraft | B789/H-SDE1E2E3FGHIJ2J3J4J5M1RWXY/LB1D1 |
Departure
| Time | 2026-05-04 19:12 |
|---|---|
| Airport | Hong Kong International Airport (VHHH) |
Arrival
| Time | 2026-05-05 06:50 |
|---|---|
| Airport | Los Angeles International Airport (KLAX) |
| Time | Latitude | Longitude | Altitude | Speed | Heading |
|---|---|---|---|---|---|
| 2026-05-04 18:10 | 22.31112 | 113.92738 | 42 ft | 0 kts | 295° |
| 2026-05-04 18:45 | 22.31112 | 113.92739 | 70 ft | 0 kts | 295° |
| 2026-05-04 18:58 | 22.31109 | 113.92744 | 41 ft | 2 kts | 295° |
| 2026-05-04 18:58 | 22.31101 | 113.92763 | 39 ft | 3 kts | 295° |
| 2026-05-04 18:58 | 22.31092 | 113.92783 | 41 ft | 3 kts | 295° |
| 2026-05-04 18:59 | 22.31084 | 113.92800 | 38 ft | 2 kts | 295° |
| 2026-05-04 18:59 | 22.31078 | 113.92817 | 42 ft | 3 kts | 275° |
| 2026-05-04 18:59 | 22.31079 | 113.92832 | 42 ft | 3 kts | 239° |
| 2026-05-04 18:59 | 22.31090 | 113.92845 | 37 ft | 3 kts | 211° |
| 2026-05-04 19:00 | 22.31107 | 113.92855 | 41 ft | 3 kts | 205° |
| 2026-05-04 19:00 | 22.31113 | 113.92857 | 40 ft | 0 kts | 206° |
| 2026-05-04 19:03 | 22.31109 | 113.92856 | 42 ft | 1 kts | 205° |
| 2026-05-04 19:03 | 22.31095 | 113.92848 | 42 ft | 4 kts | 205° |
| 2026-05-04 19:03 | 22.31060 | 113.92831 | 42 ft | 8 kts | 204° |
| 2026-05-04 19:04 | 22.31000 | 113.92802 | 42 ft | 11 kts | 206° |
| 2026-05-04 19:04 | 22.30924 | 113.92758 | 42 ft | 13 kts | 216° |
| 2026-05-04 19:04 | 22.30848 | 113.92705 | 42 ft | 12 kts | 227° |
| 2026-05-04 19:04 | 22.30815 | 113.92625 | 42 ft | 13 kts | 251° |
| 2026-05-04 19:05 | 22.30781 | 113.92524 | 42 ft | 16 kts | 250° |
| 2026-05-04 19:05 | 22.30744 | 113.92399 | 42 ft | 18 kts | 266° |
| 2026-05-04 19:05 | 22.30810 | 113.92326 | 42 ft | 14 kts | 339° |
| 2026-05-04 19:05 | 22.30907 | 113.92288 | 42 ft | 16 kts | 341° |
| 2026-05-04 19:06 | 22.31024 | 113.92244 | 42 ft | 19 kts | 340° |
| 2026-05-04 19:06 | 22.31160 | 113.92195 | 42 ft | 22 kts | 341° |
| 2026-05-04 19:06 | 22.31313 | 113.92133 | 42 ft | 25 kts | 340° |
| 2026-05-04 19:06 | 22.31484 | 113.92070 | 42 ft | 27 kts | 330° |
| 2026-05-04 19:07 | 22.31498 | 113.91898 | 42 ft | 26 kts | 246° |
| 2026-05-04 19:07 | 22.31435 | 113.91713 | 42 ft | 27 kts | 252° |
| 2026-05-04 19:07 | 22.31370 | 113.91511 | 42 ft | 30 kts | 250° |
| 2026-05-04 19:07 | 22.31292 | 113.91294 | 43 ft | 33 kts | 249° |
| 2026-05-04 19:08 | 22.31223 | 113.91051 | 43 ft | 35 kts | 250° |
| 2026-05-04 19:08 | 22.31137 | 113.90792 | 42 ft | 38 kts | 251° |
| 2026-05-04 19:08 | 22.31049 | 113.90518 | 42 ft | 36 kts | 249° |
| 2026-05-04 19:08 | 22.30962 | 113.90254 | 42 ft | 38 kts | 252° |
| 2026-05-04 19:09 | 22.30877 | 113.89983 | 40 ft | 37 kts | 250° |
| 2026-05-04 19:09 | 22.30890 | 113.89830 | 42 ft | 15 kts | 336° |
| 2026-05-04 19:09 | 22.30949 | 113.89806 | 42 ft | 0 kts | 340° |
| 2026-05-04 19:10 | 22.30950 | 113.89806 | 42 ft | 1 kts | 341° |
| 2026-05-04 19:10 | 22.30970 | 113.89798 | 42 ft | 5 kts | 341° |
| 2026-05-04 19:10 | 22.31021 | 113.89780 | 42 ft | 10 kts | 342° |
| 2026-05-04 19:10 | 22.31079 | 113.89789 | 42 ft | 7 kts | 39° |
| 2026-05-04 19:11 | 22.31102 | 113.89826 | 40 ft | 5 kts | 66° |
| 2026-05-04 19:11 | 22.31117 | 113.89873 | 42 ft | 8 kts | 71° |
| 2026-05-04 19:11 | 22.31152 | 113.89979 | 42 ft | 36 kts | 70° |
| 2026-05-04 19:11 | 22.31315 | 113.90477 | 40 ft | 103 kts | 71° |
| 2026-05-04 19:12 | 22.31614 | 113.91414 | 45 ft | 160 kts | 71° |
| 2026-05-04 19:12 | 22.32513 | 113.93918 | 1031 ft | 197 kts | 75° |
| 2026-05-04 19:12 | 22.32941 | 113.95544 | 1169 ft | 242 kts | 73° |
| 2026-05-04 19:13 | 22.33422 | 113.97271 | 2345 ft | 231 kts | 84° |
| 2026-05-04 19:13 | 22.33612 | 113.98907 | 3769 ft | 220 kts | 81° |
| 2026-05-04 19:13 | 22.33946 | 114.00607 | 4338 ft | 241 kts | 79° |
| 2026-05-04 19:13 | 22.34277 | 114.02407 | 5264 ft | 245 kts | 80° |
| 2026-05-04 19:14 | 22.34371 | 114.04260 | 6075 ft | 253 kts | 104° |
| 2026-05-04 19:14 | 22.33730 | 114.06039 | 6916 ft | 254 kts | 126° |
| 2026-05-04 19:14 | 22.32555 | 114.07430 | 7876 ft | 250 kts | 149° |
| 2026-05-04 19:14 | 22.30990 | 114.08361 | 8419 ft | 266 kts | 167° |
| 2026-05-04 19:15 | 22.29218 | 114.08709 | 9503 ft | 258 kts | 179° |
| 2026-05-04 19:15 | 22.27387 | 114.08694 | 9967 ft | 280 kts | 183° |
| 2026-05-04 19:15 | 22.25357 | 114.08684 | 9997 ft | 292 kts | 182° |
| 2026-05-04 19:15 | 22.23354 | 114.08678 | 9988 ft | 290 kts | 182° |
| 2026-05-04 19:16 | 22.21277 | 114.08656 | 10036 ft | 311 kts | 183° |
| 2026-05-04 19:16 | 22.19065 | 114.08676 | 10380 ft | 337 kts | 174° |
| 2026-05-04 19:16 | 22.16824 | 114.09552 | 11483 ft | 341 kts | 153° |
| 2026-05-04 19:16 | 22.14987 | 114.11226 | 12397 ft | 354 kts | 130° |
| 2026-05-04 19:17 | 22.13709 | 114.13528 | 13342 ft | 364 kts | 120° |
| 2026-05-04 19:17 | 22.12562 | 114.15986 | 14254 ft | 370 kts | 118° |
| 2026-05-04 19:17 | 22.11406 | 114.18500 | 15068 ft | 377 kts | 119° |
| 2026-05-04 19:17 | 22.10206 | 114.21011 | 15916 ft | 384 kts | 120° |
| 2026-05-04 19:18 | 22.08942 | 114.23627 | 16735 ft | 392 kts | 120° |
| 2026-05-04 19:18 | 22.07491 | 114.26101 | 17547 ft | 393 kts | 136° |
| 2026-05-04 19:18 | 22.05449 | 114.28025 | 18324 ft | 397 kts | 147° |
| 2026-05-04 19:18 | 22.03210 | 114.29788 | 19023 ft | 402 kts | 148° |
| 2026-05-04 19:19 | 22.00920 | 114.31554 | 19754 ft | 408 kts | 148° |
| 2026-05-04 19:19 | 21.98617 | 114.33363 | 20510 ft | 414 kts | 148° |
| 2026-05-04 19:19 | 21.96296 | 114.35213 | 21240 ft | 420 kts | 148° |
| 2026-05-04 19:19 | 21.93930 | 114.37082 | 21952 ft | 425 kts | 148° |
| 2026-05-04 19:20 | 21.91519 | 114.38971 | 22686 ft | 430 kts | 149° |
| 2026-05-04 19:20 | 21.89116 | 114.40857 | 23377 ft | 436 kts | 148° |
| 2026-05-04 19:20 | 21.86812 | 114.43049 | 23996 ft | 448 kts | 135° |
| 2026-05-04 19:20 | 21.84947 | 114.45767 | 24565 ft | 460 kts | 123° |
| 2026-05-04 19:21 | 21.83609 | 114.48956 | 25153 ft | 471 kts | 109° |
| 2026-05-04 19:21 | 21.82735 | 114.52344 | 25675 ft | 478 kts | 108° |
| 2026-05-04 19:21 | 21.81817 | 114.55839 | 26281 ft | 483 kts | 108° |
| 2026-05-04 19:21 | 21.80905 | 114.59317 | 26850 ft | 488 kts | 108° |
| 2026-05-04 19:22 | 21.79998 | 114.62853 | 27400 ft | 493 kts | 108° |
| 2026-05-04 19:22 | 21.79075 | 114.66450 | 27979 ft | 498 kts | 108° |
| 2026-05-04 19:22 | 21.78138 | 114.70056 | 28541 ft | 503 kts | 108° |
| 2026-05-04 19:22 | 21.77211 | 114.73604 | 29073 ft | 508 kts | 108° |
| 2026-05-04 19:23 | 21.76247 | 114.77319 | 29640 ft | 513 kts | 108° |
| 2026-05-04 19:23 | 21.75283 | 114.81043 | 30156 ft | 519 kts | 108° |
| 2026-05-04 19:23 | 21.74499 | 114.84842 | 30634 ft | 525 kts | 97° |
| 2026-05-04 19:23 | 21.74345 | 114.88739 | 31096 ft | 530 kts | 90° |
| 2026-05-04 19:24 | 21.74354 | 114.92706 | 31546 ft | 534 kts | 90° |
| 2026-05-04 19:24 | 21.74371 | 114.96765 | 32034 ft | 538 kts | 90° |
| 2026-05-04 19:24 | 21.74368 | 115.00817 | 32504 ft | 541 kts | 90° |
| 2026-05-04 19:24 | 21.74355 | 115.04817 | 32951 ft | 545 kts | 90° |
| 2026-05-04 19:25 | 21.74352 | 115.08906 | 33409 ft | 549 kts | 90° |
| 2026-05-04 19:25 | 21.74355 | 115.13013 | 33847 ft | 553 kts | 90° |
| 2026-05-04 19:25 | 21.74352 | 115.17182 | 34257 ft | 556 kts | 90° |
| 2026-05-04 19:25 | 21.74341 | 115.21339 | 34751 ft | 557 kts | 90° |
| 2026-05-04 19:26 | 21.74332 | 115.25535 | 34983 ft | 564 kts | 90° |
| 2026-05-04 19:26 | 21.74320 | 115.33928 | 34978 ft | 567 kts | 90° |
| 2026-05-04 19:27 | 21.74294 | 115.42552 | 34994 ft | 584 kts | 90° |
| 2026-05-04 19:27 | 21.74269 | 115.51288 | 34994 ft | 585 kts | 90° |
| 2026-05-04 19:28 | 21.74236 | 115.60036 | 34993 ft | 583 kts | 90° |
| 2026-05-04 19:28 | 21.74205 | 115.68740 | 35000 ft | 583 kts | 90° |
| 2026-05-04 19:29 | 21.74167 | 115.77404 | 34998 ft | 583 kts | 90° |
| 2026-05-04 19:29 | 21.74126 | 115.86111 | 34999 ft | 583 kts | 90° |
| 2026-05-04 19:30 | 21.74080 | 115.94838 | 35000 ft | 583 kts | 90° |
| 2026-05-04 19:30 | 21.74029 | 116.03539 | 35001 ft | 582 kts | 90° |
| 2026-05-04 19:31 | 21.73974 | 116.12248 | 35007 ft | 582 kts | 90° |
| 2026-05-04 19:31 | 21.73914 | 116.20901 | 35002 ft | 582 kts | 90° |
| 2026-05-04 19:32 | 21.73850 | 116.29598 | 35007 ft | 582 kts | 90° |
| 2026-05-04 19:32 | 21.73781 | 116.38315 | 35004 ft | 582 kts | 90° |
| 2026-05-04 19:33 | 21.73707 | 116.47022 | 35002 ft | 582 kts | 91° |
| 2026-05-04 19:33 | 21.73629 | 116.55730 | 35004 ft | 582 kts | 91° |
| 2026-05-04 19:34 | 21.73547 | 116.64430 | 35004 ft | 583 kts | 91° |
| 2026-05-04 19:34 | 21.73460 | 116.73074 | 35005 ft | 583 kts | 91° |
| 2026-05-04 19:34 | 21.73681 | 116.77419 | 35023 ft | 582 kts | 79° |
| 2026-05-04 19:35 | 21.74593 | 116.81653 | 35028 ft | 580 kts | 69° |
| 2026-05-04 19:35 | 21.77483 | 116.89735 | 35004 ft | 579 kts | 66° |
| 2026-05-04 19:36 | 21.80379 | 116.97750 | 35008 ft | 579 kts | 66° |
| 2026-05-04 19:36 | 21.83301 | 117.05831 | 35005 ft | 580 kts | 66° |
| 2026-05-04 19:37 | 21.86226 | 117.13945 | 35004 ft | 580 kts | 67° |
| 2026-05-04 19:37 | 21.89130 | 117.22006 | 35005 ft | 580 kts | 67° |
| 2026-05-04 19:38 | 21.92049 | 117.30133 | 35004 ft | 580 kts | 67° |
| 2026-05-04 19:38 | 21.94941 | 117.38192 | 35009 ft | 581 kts | 67° |
| 2026-05-04 19:39 | 21.97849 | 117.46312 | 35009 ft | 581 kts | 67° |
| 2026-05-04 19:39 | 22.01450 | 117.54037 | 35006 ft | 577 kts | 55° |
| 2026-05-04 19:40 | 22.05669 | 117.61420 | 35012 ft | 578 kts | 55° |
| 2026-05-04 19:40 | 22.09824 | 117.68772 | 35015 ft | 578 kts | 55° |
| 2026-05-04 19:41 | 22.14023 | 117.76165 | 35015 ft | 578 kts | 55° |
| 2026-05-04 19:41 | 22.18205 | 117.83567 | 35015 ft | 578 kts | 56° |
| 2026-05-04 19:42 | 22.22397 | 117.90981 | 35012 ft | 579 kts | 55° |
| 2026-05-04 19:42 | 22.26576 | 117.98391 | 35016 ft | 579 kts | 56° |
| 2026-05-04 19:43 | 22.30796 | 118.05742 | 35015 ft | 578 kts | 54° |
| 2026-05-04 19:43 | 22.35120 | 118.13049 | 35015 ft | 579 kts | 55° |
| 2026-05-04 19:44 | 22.39383 | 118.20449 | 35010 ft | 579 kts | 54° |
| 2026-05-04 19:44 | 22.43644 | 118.27844 | 35015 ft | 580 kts | 56° |
| 2026-05-04 19:45 | 22.47814 | 118.35303 | 35015 ft | 581 kts | 55° |
| 2026-05-04 19:45 | 22.52032 | 118.42686 | 35014 ft | 581 kts | 56° |
| 2026-05-04 19:46 | 22.56226 | 118.50165 | 35014 ft | 581 kts | 55° |
| 2026-05-04 19:46 | 22.60479 | 118.57611 | 35016 ft | 581 kts | 55° |
| 2026-05-04 19:47 | 22.64713 | 118.65047 | 35011 ft | 582 kts | 55° |
| 2026-05-04 19:47 | 22.68946 | 118.72497 | 35011 ft | 582 kts | 55° |
| 2026-05-04 19:48 | 22.73161 | 118.79912 | 35013 ft | 582 kts | 55° |
| 2026-05-04 19:48 | 22.77399 | 118.87394 | 35010 ft | 583 kts | 55° |
| 2026-05-04 19:49 | 22.81646 | 118.94891 | 35014 ft | 583 kts | 56° |
| 2026-05-04 19:49 | 22.85872 | 119.02370 | 35010 ft | 583 kts | 56° |
| 2026-05-04 19:50 | 22.90087 | 119.09832 | 35007 ft | 583 kts | 56° |
| 2026-05-04 19:50 | 22.94304 | 119.17317 | 35009 ft | 583 kts | 56° |
| 2026-05-04 19:51 | 22.98539 | 119.24839 | 35005 ft | 583 kts | 56° |
| 2026-05-04 19:51 | 23.02764 | 119.32356 | 35010 ft | 584 kts | 56° |
| 2026-05-04 19:52 | 23.06967 | 119.39844 | 35009 ft | 585 kts | 56° |
| 2026-05-04 19:52 | 23.11199 | 119.47396 | 35005 ft | 585 kts | 56° |
| 2026-05-04 19:53 | 23.15422 | 119.54943 | 35004 ft | 585 kts | 56° |
| 2026-05-04 19:53 | 23.19638 | 119.62487 | 35007 ft | 585 kts | 56° |
| 2026-05-04 19:54 | 23.23880 | 119.70079 | 35009 ft | 586 kts | 56° |
| 2026-05-04 19:54 | 23.28076 | 119.77607 | 35010 ft | 586 kts | 56° |
| 2026-05-04 19:55 | 23.32294 | 119.85181 | 35006 ft | 586 kts | 56° |
| 2026-05-04 19:55 | 23.36701 | 119.92576 | 35021 ft | 581 kts | 45° |
| 2026-05-04 19:56 | 23.42429 | 119.98742 | 35012 ft | 577 kts | 39° |
| 2026-05-04 19:56 | 23.48247 | 120.04722 | 35009 ft | 578 kts | 39° |
| 2026-05-04 19:57 | 23.54087 | 120.10751 | 35014 ft | 579 kts | 39° |
| 2026-05-04 19:57 | 23.59947 | 120.16794 | 35017 ft | 579 kts | 39° |
| 2026-05-04 19:58 | 23.65756 | 120.22802 | 35003 ft | 580 kts | 39° |
| 2026-05-04 19:58 | 23.71610 | 120.28858 | 35009 ft | 580 kts | 39° |
| 2026-05-04 19:59 | 23.77449 | 120.34909 | 35020 ft | 580 kts | 39° |
| 2026-05-04 19:59 | 23.83310 | 120.40990 | 35016 ft | 580 kts | 39° |
| 2026-05-04 20:00 | 23.89149 | 120.47056 | 35018 ft | 581 kts | 39° |
| 2026-05-04 20:00 | 23.94965 | 120.53143 | 35021 ft | 582 kts | 39° |
| 2026-05-04 20:01 | 24.00756 | 120.59283 | 35028 ft | 582 kts | 39° |
| 2026-05-04 20:01 | 24.06610 | 120.65441 | 35032 ft | 583 kts | 39° |
| 2026-05-04 20:02 | 24.12404 | 120.71585 | 35035 ft | 583 kts | 39° |
| 2026-05-04 20:02 | 24.18255 | 120.77768 | 35030 ft | 585 kts | 39° |
| 2026-05-04 20:03 | 24.24091 | 120.83965 | 35035 ft | 585 kts | 39° |
| 2026-05-04 20:03 | 24.29840 | 120.90062 | 35042 ft | 586 kts | 39° |
| 2026-05-04 20:04 | 24.35699 | 120.96295 | 35044 ft | 587 kts | 39° |
| 2026-05-04 20:04 | 24.41483 | 121.02521 | 35049 ft | 589 kts | 45° |
| 2026-05-04 20:05 | 24.46645 | 121.09559 | 35058 ft | 593 kts | 47° |
| 2026-05-04 20:05 | 24.51791 | 121.16640 | 35053 ft | 592 kts | 47° |
| 2026-05-04 20:06 | 24.56903 | 121.23707 | 35062 ft | 591 kts | 47° |
| 2026-05-04 20:06 | 24.62023 | 121.30777 | 35053 ft | 593 kts | 48° |
| 2026-05-04 20:07 | 24.67117 | 121.37836 | 35048 ft | 593 kts | 48° |
| 2026-05-04 20:07 | 24.72242 | 121.44938 | 35045 ft | 593 kts | 48° |
| 2026-05-04 20:08 | 24.77355 | 121.52043 | 35040 ft | 592 kts | 48° |
| 2026-05-04 20:08 | 24.82448 | 121.59122 | 35049 ft | 593 kts | 48° |
| 2026-05-04 20:09 | 24.87560 | 121.66245 | 35031 ft | 593 kts | 48° |
| 2026-05-04 20:09 | 24.92841 | 121.73188 | 35024 ft | 591 kts | 45° |
| 2026-05-04 20:10 | 24.98201 | 121.80061 | 35041 ft | 592 kts | 45° |
| 2026-05-04 20:10 | 25.03592 | 121.86902 | 35042 ft | 592 kts | 45° |
| 2026-05-04 20:11 | 25.08971 | 121.93786 | 35052 ft | 593 kts | 45° |
| 2026-05-04 20:11 | 25.14148 | 122.00398 | 35063 ft | 593 kts | 45° |
| 2026-05-04 20:12 | 25.19487 | 122.07339 | 35061 ft | 594 kts | 46° |
| 2026-05-04 20:12 | 25.24843 | 122.14285 | 35066 ft | 594 kts | 45° |
| 2026-05-04 20:13 | 25.30185 | 122.21224 | 35066 ft | 594 kts | 46° |
| 2026-05-04 20:13 | 25.35508 | 122.28160 | 35075 ft | 593 kts | 46° |
| 2026-05-04 20:14 | 25.40848 | 122.35113 | 35065 ft | 593 kts | 46° |
| 2026-05-04 20:14 | 25.46179 | 122.42080 | 35075 ft | 593 kts | 46° |
| 2026-05-04 20:15 | 25.51478 | 122.49002 | 35076 ft | 593 kts | 46° |
| 2026-05-04 20:15 | 25.56824 | 122.55941 | 35083 ft | 593 kts | 45° |
| 2026-05-04 20:16 | 25.62187 | 122.62914 | 35083 ft | 594 kts | 46° |
| 2026-05-04 20:16 | 25.67534 | 122.69886 | 35079 ft | 594 kts | 45° |
| 2026-05-04 20:17 | 25.72859 | 122.76828 | 35080 ft | 594 kts | 46° |
| 2026-05-04 20:17 | 25.78209 | 122.83824 | 35087 ft | 596 kts | 46° |
| 2026-05-04 20:18 | 25.83572 | 122.90839 | 35085 ft | 596 kts | 46° |
| 2026-05-04 20:18 | 25.88920 | 122.97853 | 35088 ft | 596 kts | 46° |
| 2026-05-04 20:19 | 25.94280 | 123.04889 | 35092 ft | 596 kts | 46° |
| 2026-05-04 20:19 | 25.99600 | 123.11893 | 35091 ft | 596 kts | 46° |
| 2026-05-04 20:20 | 26.04939 | 123.18926 | 35095 ft | 597 kts | 46° |
| 2026-05-04 20:20 | 26.10307 | 123.26013 | 35094 ft | 598 kts | 46° |
| 2026-05-04 20:21 | 26.15662 | 123.33090 | 35097 ft | 598 kts | 46° |
| 2026-05-04 20:21 | 26.23656 | 123.43679 | 35098 ft | 597 kts | 46° |
| 2026-05-04 20:22 | 26.29001 | 123.50772 | 35102 ft | 597 kts | 46° |
| 2026-05-04 20:22 | 26.34331 | 123.57857 | 35104 ft | 597 kts | 46° |
| 2026-05-04 20:23 | 26.39672 | 123.64967 | 35100 ft | 598 kts | 46° |
| 2026-05-04 20:23 | 26.44988 | 123.72056 | 35110 ft | 598 kts | 46° |
| 2026-05-04 20:24 | 26.50315 | 123.79170 | 35112 ft | 598 kts | 46° |
| 2026-05-04 20:24 | 26.55660 | 123.86320 | 35114 ft | 598 kts | 46° |
| 2026-05-04 20:25 | 26.60987 | 123.93457 | 35111 ft | 599 kts | 46° |
| 2026-05-04 20:25 | 26.66281 | 124.00561 | 35111 ft | 599 kts | 46° |
| 2026-05-04 20:26 | 26.71623 | 124.07702 | 35115 ft | 599 kts | 46° |
| 2026-05-04 20:26 | 26.76967 | 124.14858 | 35116 ft | 599 kts | 46° |
| 2026-05-04 20:27 | 26.82320 | 124.22043 | 35119 ft | 600 kts | 46° |
| 2026-05-04 20:27 | 26.87651 | 124.29205 | 35118 ft | 601 kts | 46° |
| 2026-05-04 20:28 | 26.92822 | 124.36168 | 35122 ft | 601 kts | 46° |
| 2026-05-04 20:28 | 26.98168 | 124.43371 | 35119 ft | 601 kts | 47° |
| 2026-05-04 20:29 | 27.03504 | 124.50573 | 35111 ft | 602 kts | 47° |
| 2026-05-04 20:29 | 27.08833 | 124.57772 | 35121 ft | 603 kts | 47° |
| 2026-05-04 20:30 | 27.14184 | 124.65016 | 35122 ft | 603 kts | 47° |
| 2026-05-04 20:30 | 27.19535 | 124.72270 | 35131 ft | 604 kts | 47° |
| 2026-05-04 20:31 | 27.24884 | 124.79537 | 35128 ft | 603 kts | 47° |
| 2026-05-04 20:31 | 27.30235 | 124.86814 | 35131 ft | 604 kts | 47° |
| 2026-05-04 20:32 | 27.35560 | 124.94071 | 35143 ft | 605 kts | 47° |
| 2026-05-04 20:32 | 27.40898 | 125.01356 | 35133 ft | 605 kts | 47° |
| 2026-05-04 20:33 | 27.46322 | 125.08639 | 35136 ft | 606 kts | 46° |
| 2026-05-04 20:33 | 27.51715 | 125.15936 | 35132 ft | 607 kts | 47° |
| 2026-05-04 20:34 | 27.57103 | 125.23224 | 35139 ft | 607 kts | 46° |
| 2026-05-04 20:34 | 27.62470 | 125.30493 | 35139 ft | 607 kts | 47° |
| 2026-05-04 20:35 | 27.67876 | 125.37837 | 35140 ft | 608 kts | 47° |
| 2026-05-04 20:35 | 27.73276 | 125.45175 | 35142 ft | 609 kts | 47° |
| 2026-05-04 20:36 | 27.78683 | 125.52545 | 35140 ft | 609 kts | 47° |
| 2026-05-04 20:36 | 27.84049 | 125.59861 | 35143 ft | 610 kts | 47° |
| 2026-05-04 20:37 | 27.89453 | 125.67252 | 35145 ft | 610 kts | 47° |
| 2026-05-04 20:37 | 27.94881 | 125.74680 | 35141 ft | 611 kts | 47° |
| 2026-05-04 20:38 | 28.00276 | 125.82083 | 35145 ft | 611 kts | 47° |
| 2026-05-04 20:38 | 28.05674 | 125.89498 | 35145 ft | 611 kts | 47° |
| 2026-05-04 20:39 | 28.11049 | 125.96896 | 35135 ft | 612 kts | 47° |
| 2026-05-04 20:39 | 28.16457 | 126.04352 | 35140 ft | 612 kts | 47° |
| 2026-05-04 20:40 | 28.21845 | 126.11794 | 35145 ft | 611 kts | 47° |
| 2026-05-04 20:40 | 28.27239 | 126.19257 | 35144 ft | 612 kts | 47° |
| 2026-05-04 20:41 | 28.32602 | 126.26690 | 35148 ft | 613 kts | 47° |
| 2026-05-04 20:41 | 28.37987 | 126.34168 | 35153 ft | 612 kts | 47° |
| 2026-05-04 20:42 | 28.43385 | 126.41675 | 35152 ft | 613 kts | 47° |
| 2026-05-04 20:42 | 28.48769 | 126.49178 | 35149 ft | 613 kts | 47° |
| 2026-05-04 20:43 | 28.54122 | 126.56650 | 35156 ft | 613 kts | 47° |
| 2026-05-04 20:43 | 28.59508 | 126.64182 | 35159 ft | 613 kts | 47° |
| 2026-05-04 20:44 | 28.64879 | 126.71707 | 35151 ft | 613 kts | 47° |
| 2026-05-04 20:44 | 28.70231 | 126.79218 | 35149 ft | 613 kts | 47° |
| 2026-05-04 20:45 | 28.75590 | 126.86752 | 35155 ft | 613 kts | 47° |
| 2026-05-04 20:45 | 28.80955 | 126.94309 | 35155 ft | 613 kts | 47° |
| 2026-05-04 20:46 | 28.86318 | 127.01878 | 35160 ft | 613 kts | 47° |
| 2026-05-04 20:46 | 28.91682 | 127.09459 | 35157 ft | 614 kts | 47° |
| 2026-05-04 20:47 | 28.97043 | 127.17052 | 35159 ft | 615 kts | 47° |
| 2026-05-04 20:47 | 29.02381 | 127.24626 | 35160 ft | 615 kts | 47° |
| 2026-05-04 20:48 | 29.07738 | 127.32241 | 35160 ft | 615 kts | 47° |
| 2026-05-04 20:48 | 29.13097 | 127.39872 | 35157 ft | 616 kts | 47° |
| 2026-05-04 20:49 | 29.18459 | 127.47523 | 35155 ft | 617 kts | 47° |
| 2026-05-04 20:49 | 29.23789 | 127.55140 | 35159 ft | 617 kts | 47° |
| 2026-05-04 20:50 | 29.29162 | 127.62835 | 35157 ft | 618 kts | 47° |
| 2026-05-04 20:50 | 29.34524 | 127.70528 | 35157 ft | 619 kts | 47° |
| 2026-05-04 20:51 | 29.39895 | 127.78249 | 35160 ft | 620 kts | 47° |
| 2026-05-04 20:51 | 29.45267 | 127.85984 | 35158 ft | 620 kts | 47° |
| 2026-05-04 20:52 | 29.50600 | 127.93679 | 35158 ft | 621 kts | 47° |
| 2026-05-04 20:52 | 29.55987 | 128.01462 | 35158 ft | 621 kts | 47° |
| 2026-05-04 20:53 | 29.61322 | 128.09177 | 35161 ft | 621 kts | 47° |
| 2026-05-04 20:53 | 29.66685 | 128.16953 | 35163 ft | 621 kts | 47° |
| 2026-05-04 20:54 | 29.72046 | 128.24736 | 35151 ft | 622 kts | 47° |
| 2026-05-04 20:54 | 29.77412 | 128.32545 | 35156 ft | 621 kts | 47° |
| 2026-05-04 20:55 | 29.82772 | 128.40358 | 35158 ft | 622 kts | 47° |
| 2026-05-04 20:55 | 29.88091 | 128.48129 | 35162 ft | 622 kts | 47° |
| 2026-05-04 20:56 | 29.93449 | 128.55969 | 35163 ft | 622 kts | 47° |
| 2026-05-04 20:56 | 29.98806 | 128.63824 | 35159 ft | 623 kts | 47° |
| 2026-05-04 20:57 | 30.04145 | 128.71668 | 35160 ft | 623 kts | 47° |
| 2026-05-04 20:57 | 30.09493 | 128.79540 | 35159 ft | 623 kts | 47° |
| 2026-05-04 20:58 | 30.14806 | 128.87375 | 35161 ft | 623 kts | 47° |
| 2026-05-04 20:58 | 30.20149 | 128.95273 | 35161 ft | 624 kts | 47° |
| 2026-05-04 20:59 | 30.25501 | 129.03198 | 35162 ft | 624 kts | 47° |
| 2026-05-04 20:59 | 30.30828 | 129.11101 | 35162 ft | 623 kts | 47° |
| 2026-05-04 21:00 | 30.36115 | 129.18961 | 35162 ft | 622 kts | 47° |
| 2026-05-04 21:00 | 30.41422 | 129.26867 | 35164 ft | 623 kts | 47° |
| 2026-05-04 21:01 | 30.46733 | 129.34795 | 35160 ft | 623 kts | 47° |
| 2026-05-04 21:01 | 30.52047 | 129.42743 | 35161 ft | 623 kts | 47° |
| 2026-05-04 21:02 | 30.57347 | 129.50685 | 35167 ft | 623 kts | 48° |
| 2026-05-04 21:02 | 30.62617 | 129.58598 | 35161 ft | 624 kts | 48° |
| 2026-05-04 21:03 | 30.67919 | 129.66576 | 35150 ft | 623 kts | 48° |
| 2026-05-04 21:03 | 30.73200 | 129.74538 | 35148 ft | 623 kts | 48° |
| 2026-05-04 21:04 | 30.78490 | 129.82530 | 35154 ft | 623 kts | 48° |
| 2026-05-04 21:04 | 30.83737 | 129.90477 | 35158 ft | 623 kts | 49° |
| 2026-05-04 21:05 | 30.88433 | 129.99007 | 35156 ft | 627 kts | 55° |
| 2026-05-04 21:05 | 30.93022 | 130.07671 | 35165 ft | 628 kts | 54° |
| 2026-05-04 21:06 | 30.97613 | 130.16297 | 35167 ft | 628 kts | 55° |
| 2026-05-04 21:06 | 31.02182 | 130.24953 | 35165 ft | 627 kts | 55° |
| 2026-05-04 21:07 | 31.06740 | 130.33564 | 35173 ft | 627 kts | 55° |
| 2026-05-04 21:07 | 31.11297 | 130.42228 | 35169 ft | 627 kts | 55° |
| 2026-05-04 21:08 | 31.15875 | 130.50923 | 35165 ft | 627 kts | 55° |
| 2026-05-04 21:08 | 31.20412 | 130.59580 | 35170 ft | 626 kts | 55° |
| 2026-05-04 21:09 | 31.24971 | 130.68286 | 35176 ft | 626 kts | 55° |
| 2026-05-04 21:09 | 31.29482 | 130.76924 | 35174 ft | 627 kts | 55° |
| 2026-05-04 21:10 | 31.34011 | 130.85615 | 35171 ft | 627 kts | 55° |
| 2026-05-04 21:10 | 31.38522 | 130.94294 | 35173 ft | 627 kts | 56° |
| 2026-05-04 21:11 | 31.43048 | 131.03018 | 35182 ft | 627 kts | 56° |
| 2026-05-04 21:11 | 31.47574 | 131.11763 | 35185 ft | 627 kts | 56° |
| 2026-05-04 21:12 | 31.52081 | 131.20492 | 35179 ft | 628 kts | 56° |
| 2026-05-04 21:12 | 31.56602 | 131.29267 | 35168 ft | 628 kts | 56° |
| 2026-05-04 21:13 | 31.61077 | 131.37973 | 35182 ft | 627 kts | 56° |
| 2026-05-04 21:13 | 31.65572 | 131.46749 | 35181 ft | 628 kts | 56° |
| 2026-05-04 21:14 | 31.70075 | 131.55557 | 35186 ft | 629 kts | 56° |
| 2026-05-04 21:14 | 31.74564 | 131.64359 | 35186 ft | 628 kts | 56° |
| 2026-05-04 21:15 | 31.79020 | 131.73119 | 35185 ft | 628 kts | 56° |
| 2026-05-04 21:15 | 31.83496 | 131.81935 | 35176 ft | 628 kts | 56° |
| 2026-05-04 21:16 | 31.87962 | 131.90755 | 35170 ft | 628 kts | 56° |
| 2026-05-04 21:16 | 31.92432 | 131.99603 | 35173 ft | 628 kts | 56° |
| 2026-05-04 21:17 | 31.96886 | 132.08440 | 35173 ft | 628 kts | 56° |
| 2026-05-04 21:17 | 32.01313 | 132.17243 | 35179 ft | 628 kts | 56° |
| 2026-05-04 21:18 | 32.05746 | 132.26080 | 35173 ft | 628 kts | 56° |
| 2026-05-04 21:18 | 32.10193 | 132.34964 | 35175 ft | 628 kts | 57° |
| 2026-05-04 21:19 | 32.14392 | 132.44015 | 35171 ft | 630 kts | 62° |
| 2026-05-04 21:19 | 32.18305 | 132.53252 | 35152 ft | 631 kts | 61° |
| 2026-05-04 21:20 | 32.22217 | 132.62475 | 35162 ft | 631 kts | 62° |
| 2026-05-04 21:20 | 32.26122 | 132.71740 | 35170 ft | 631 kts | 62° |
| 2026-05-04 21:21 | 32.30042 | 132.81034 | 35168 ft | 631 kts | 62° |
| 2026-05-04 21:21 | 32.33931 | 132.90301 | 35168 ft | 631 kts | 62° |
| 2026-05-04 21:22 | 32.37809 | 132.99550 | 35167 ft | 631 kts | 62° |
| 2026-05-04 21:22 | 32.41698 | 133.08862 | 35167 ft | 630 kts | 62° |
| 2026-05-04 21:23 | 32.45576 | 133.18162 | 35171 ft | 630 kts | 62° |
| 2026-05-04 21:23 | 32.49444 | 133.27471 | 35172 ft | 630 kts | 62° |
| 2026-05-04 21:24 | 32.53279 | 133.36719 | 35181 ft | 630 kts | 62° |
| 2026-05-04 21:24 | 32.57140 | 133.46056 | 35178 ft | 630 kts | 63° |
| 2026-05-04 21:25 | 32.60987 | 133.55382 | 35175 ft | 630 kts | 63° |
| 2026-05-04 21:25 | 32.64825 | 133.64711 | 35166 ft | 629 kts | 63° |
| 2026-05-04 21:26 | 32.68654 | 133.74040 | 35165 ft | 629 kts | 63° |
| 2026-05-04 21:26 | 32.72457 | 133.83333 | 35172 ft | 629 kts | 63° |
| 2026-05-04 21:27 | 32.76195 | 133.92492 | 35179 ft | 629 kts | 63° |
| 2026-05-04 21:27 | 32.80008 | 134.01856 | 35178 ft | 629 kts | 63° |
| 2026-05-04 21:28 | 32.82865 | 134.09805 | 35194 ft | 628 kts | 75° |
| 2026-05-04 21:28 | 32.85731 | 134.21394 | 35181 ft | 629 kts | 75° |
| 2026-05-04 21:29 | 32.88230 | 134.31343 | 35179 ft | 629 kts | 75° |
| 2026-05-04 21:29 | 32.90282 | 134.39634 | 35184 ft | 629 kts | 75° |
| 2026-05-04 21:30 | 32.93161 | 134.51278 | 35183 ft | 630 kts | 75° |
| 2026-05-04 21:30 | 32.95624 | 134.61282 | 35187 ft | 630 kts | 75° |
| 2026-05-04 21:31 | 32.98891 | 134.74603 | 35189 ft | 631 kts | 75° |
| 2026-05-04 21:32 | 33.00840 | 134.86524 | 35189 ft | 627 kts | 86° |
| 2026-05-04 21:32 | 33.01923 | 134.96760 | 35189 ft | 626 kts | 85° |
| 2026-05-04 21:33 | 33.03061 | 135.07041 | 35191 ft | 626 kts | 86° |
| 2026-05-04 21:33 | 33.04146 | 135.17312 | 35188 ft | 625 kts | 86° |
| 2026-05-04 21:34 | 33.05066 | 135.25838 | 35182 ft | 624 kts | 86° |
| 2026-05-04 21:34 | 33.06146 | 135.36098 | 35175 ft | 624 kts | 86° |
| 2026-05-04 21:35 | 33.07225 | 135.46354 | 35174 ft | 624 kts | 86° |
| 2026-05-04 21:35 | 33.08287 | 135.56559 | 35171 ft | 625 kts | 86° |
| 2026-05-04 21:36 | 33.09352 | 135.66866 | 35165 ft | 625 kts | 86° |
| 2026-05-04 21:36 | 33.10406 | 135.77155 | 35161 ft | 625 kts | 86° |
| 2026-05-04 21:37 | 33.11449 | 135.87426 | 35161 ft | 624 kts | 86° |
| 2026-05-04 21:37 | 33.12479 | 135.97647 | 35157 ft | 624 kts | 87° |
| 2026-05-04 21:38 | 33.13505 | 136.07928 | 35159 ft | 625 kts | 87° |
| 2026-05-04 21:38 | 33.14526 | 136.18229 | 35155 ft | 625 kts | 87° |
| 2026-05-04 21:39 | 33.15538 | 136.28545 | 35155 ft | 626 kts | 87° |
| 2026-05-04 21:39 | 33.16544 | 136.38876 | 35169 ft | 626 kts | 87° |
| 2026-05-04 21:40 | 33.17532 | 136.49116 | 35170 ft | 626 kts | 87° |
| 2026-05-04 21:40 | 33.18519 | 136.59435 | 35163 ft | 626 kts | 87° |
| 2026-05-04 21:41 | 33.19496 | 136.69745 | 35171 ft | 626 kts | 87° |
| 2026-05-04 21:41 | 33.20468 | 136.80092 | 35173 ft | 627 kts | 87° |
| 2026-05-04 21:42 | 33.21430 | 136.90431 | 35160 ft | 626 kts | 87° |
| 2026-05-04 21:42 | 33.22384 | 137.00780 | 35163 ft | 626 kts | 87° |
| 2026-05-04 21:43 | 33.23439 | 137.10428 | 35179 ft | 629 kts | 78° |
| 2026-05-04 21:43 | 33.25897 | 137.20456 | 35174 ft | 630 kts | 74° |
| 2026-05-04 21:44 | 33.28416 | 137.30507 | 35169 ft | 630 kts | 75° |
| 2026-05-04 21:44 | 33.30888 | 137.40473 | 35167 ft | 631 kts | 75° |
| 2026-05-04 21:45 | 33.33392 | 137.50534 | 35165 ft | 630 kts | 75° |
| 2026-05-04 21:45 | 33.35863 | 137.60568 | 35161 ft | 630 kts | 75° |
| 2026-05-04 21:46 | 33.38342 | 137.70617 | 35156 ft | 630 kts | 75° |
| 2026-05-04 21:46 | 33.40793 | 137.80637 | 35153 ft | 632 kts | 75° |
| 2026-05-04 21:47 | 33.43435 | 137.90681 | 35164 ft | 634 kts | 66° |
| 2026-05-04 21:47 | 33.47788 | 137.99857 | 35149 ft | 635 kts | 56° |
| 2026-05-04 21:48 | 33.52423 | 138.08865 | 35149 ft | 636 kts | 57° |
| 2026-05-04 21:48 | 33.57047 | 138.17893 | 35145 ft | 637 kts | 57° |
| 2026-05-04 21:49 | 33.61663 | 138.26906 | 35136 ft | 637 kts | 57° |
| 2026-05-04 21:49 | 33.66278 | 138.35960 | 35140 ft | 637 kts | 57° |
| 2026-05-04 21:50 | 33.70904 | 138.45042 | 35139 ft | 637 kts | 57° |
| 2026-05-04 21:50 | 33.75487 | 138.54073 | 35141 ft | 636 kts | 57° |
| 2026-05-04 21:51 | 33.80077 | 138.63128 | 35129 ft | 636 kts | 57° |
| 2026-05-04 21:51 | 33.84680 | 138.72242 | 35128 ft | 636 kts | 57° |
| 2026-05-04 21:52 | 33.89264 | 138.81333 | 35132 ft | 636 kts | 57° |
| 2026-05-04 21:52 | 33.93812 | 138.90381 | 35135 ft | 636 kts | 57° |
| 2026-05-04 21:53 | 33.98392 | 138.99513 | 35139 ft | 636 kts | 57° |
| 2026-05-04 21:53 | 34.02957 | 139.08639 | 35138 ft | 636 kts | 57° |
| 2026-05-04 21:54 | 34.07502 | 139.17749 | 35142 ft | 637 kts | 57° |
| 2026-05-04 21:54 | 34.12087 | 139.26961 | 35147 ft | 638 kts | 58° |
| 2026-05-04 21:55 | 34.16620 | 139.36090 | 35143 ft | 637 kts | 58° |
| 2026-05-04 21:55 | 34.21162 | 139.45260 | 35150 ft | 638 kts | 58° |
| 2026-05-04 21:56 | 34.25717 | 139.54481 | 35155 ft | 639 kts | 58° |
| 2026-05-04 21:56 | 34.30272 | 139.63726 | 35154 ft | 639 kts | 58° |
| 2026-05-04 21:57 | 34.34805 | 139.72951 | 35155 ft | 640 kts | 58° |
| 2026-05-04 21:57 | 34.39351 | 139.82224 | 35154 ft | 641 kts | 58° |
| 2026-05-04 21:58 | 34.43824 | 139.91375 | 35159 ft | 642 kts | 58° |
| 2026-05-04 21:58 | 34.48345 | 140.00646 | 35149 ft | 642 kts | 58° |
| 2026-05-04 21:59 | 34.52878 | 140.09967 | 35158 ft | 643 kts | 58° |
| 2026-05-04 21:59 | 34.57407 | 140.19306 | 35157 ft | 643 kts | 58° |
| 2026-05-04 22:00 | 34.61935 | 140.28666 | 35157 ft | 643 kts | 59° |
| 2026-05-04 22:00 | 34.66435 | 140.37993 | 35151 ft | 644 kts | 59° |
| 2026-05-04 22:01 | 34.70889 | 140.47425 | 35165 ft | 644 kts | 61° |
| 2026-05-04 22:01 | 34.75312 | 140.56914 | 35167 ft | 645 kts | 59° |
| 2026-05-04 22:02 | 34.79651 | 140.66410 | 35167 ft | 649 kts | 61° |
| 2026-05-04 22:02 | 34.84036 | 140.75971 | 35169 ft | 648 kts | 60° |
| 2026-05-04 22:03 | 34.88413 | 140.85537 | 35164 ft | 645 kts | 61° |
| 2026-05-04 22:03 | 34.92751 | 140.95083 | 35162 ft | 644 kts | 60° |
| 2026-05-04 22:04 | 34.97095 | 141.04614 | 35154 ft | 644 kts | 61° |
| 2026-05-04 22:04 | 35.01392 | 141.14126 | 35157 ft | 644 kts | 60° |
| 2026-05-04 22:05 | 35.05732 | 141.23706 | 35157 ft | 644 kts | 61° |
| 2026-05-04 22:05 | 35.10032 | 141.33270 | 35154 ft | 643 kts | 61° |
| 2026-05-04 22:06 | 35.14332 | 141.42823 | 35152 ft | 643 kts | 61° |
| 2026-05-04 22:06 | 35.18625 | 141.52416 | 35153 ft | 643 kts | 61° |
| 2026-05-04 22:07 | 35.22891 | 141.61955 | 35153 ft | 642 kts | 61° |
| 2026-05-04 22:07 | 35.27151 | 141.71522 | 35156 ft | 642 kts | 61° |
| 2026-05-04 22:08 | 35.31411 | 141.81106 | 35160 ft | 641 kts | 61° |
| 2026-05-04 22:08 | 35.35647 | 141.90671 | 35155 ft | 642 kts | 62° |
| 2026-05-04 22:09 | 35.39891 | 142.00276 | 35147 ft | 641 kts | 62° |
| 2026-05-04 22:09 | 35.44115 | 142.09864 | 35144 ft | 641 kts | 62° |
| 2026-05-04 22:10 | 35.48325 | 142.19448 | 35145 ft | 640 kts | 62° |
| 2026-05-04 22:10 | 35.52531 | 142.29050 | 35145 ft | 640 kts | 62° |
| 2026-05-04 22:11 | 35.56740 | 142.38686 | 35144 ft | 640 kts | 62° |
| 2026-05-04 22:11 | 35.60942 | 142.48335 | 35145 ft | 640 kts | 62° |
| 2026-05-04 22:12 | 35.65126 | 142.57969 | 35143 ft | 639 kts | 62° |
| 2026-05-04 22:12 | 35.69305 | 142.67619 | 35147 ft | 639 kts | 62° |
| 2026-05-04 22:13 | 35.73459 | 142.77239 | 35135 ft | 638 kts | 62° |
| 2026-05-04 22:13 | 35.77612 | 142.86887 | 35139 ft | 638 kts | 62° |
| 2026-05-04 22:14 | 35.81750 | 142.96525 | 35136 ft | 637 kts | 63° |
| 2026-05-04 22:14 | 35.85887 | 143.06193 | 35132 ft | 636 kts | 63° |
| 2026-05-04 22:15 | 35.89976 | 143.15771 | 35130 ft | 635 kts | 63° |
| 2026-05-04 22:15 | 35.93172 | 143.25831 | 35162 ft | 629 kts | 82° |
| 2026-05-04 22:16 | 35.94392 | 143.36449 | 35144 ft | 624 kts | 88° |
| 2026-05-04 22:16 | 35.95487 | 143.47075 | 35139 ft | 625 kts | 88° |
| 2026-05-04 22:17 | 35.96567 | 143.57645 | 35132 ft | 623 kts | 88° |
| 2026-05-04 22:17 | 35.97641 | 143.68277 | 35128 ft | 623 kts | 88° |
| 2026-05-04 22:18 | 35.98705 | 143.78870 | 35127 ft | 623 kts | 88° |
| 2026-05-04 22:18 | 35.99758 | 143.89476 | 35120 ft | 622 kts | 88° |
| 2026-05-04 22:19 | 36.00828 | 143.99986 | 35125 ft | 622 kts | 83° |
| 2026-05-04 22:19 | 36.01912 | 144.05189 | 35146 ft | 627 kts | 72° |
| 2026-05-04 22:19 | 36.03642 | 144.10124 | 35145 ft | 630 kts | 61° |
| 2026-05-04 22:19 | 36.05980 | 144.14699 | 35146 ft | 629 kts | 50° |
| 2026-05-04 22:20 | 36.08828 | 144.18770 | 35150 ft | 625 kts | 44° |
| 2026-05-04 22:20 | 36.14821 | 144.26599 | 35130 ft | 625 kts | 43° |
| 2026-05-04 22:21 | 36.20746 | 144.34334 | 35122 ft | 624 kts | 44° |
| 2026-05-04 22:21 | 36.26697 | 144.42151 | 35125 ft | 625 kts | 44° |
| 2026-05-04 22:22 | 36.32678 | 144.49999 | 35116 ft | 624 kts | 44° |
| 2026-05-04 22:22 | 36.38616 | 144.57832 | 35108 ft | 624 kts | 44° |
| 2026-05-04 22:23 | 36.44534 | 144.65638 | 35101 ft | 624 kts | 44° |
| 2026-05-04 22:23 | 36.50463 | 144.73492 | 35099 ft | 624 kts | 44° |
| 2026-05-04 22:24 | 36.56403 | 144.81370 | 35089 ft | 624 kts | 44° |
| 2026-05-04 22:24 | 36.62324 | 144.89247 | 35094 ft | 624 kts | 44° |
| 2026-05-04 22:25 | 36.68212 | 144.97097 | 35088 ft | 624 kts | 44° |
| 2026-05-04 22:25 | 36.74129 | 145.05005 | 35087 ft | 624 kts | 44° |
| 2026-05-04 22:26 | 36.80047 | 145.12934 | 35080 ft | 624 kts | 44° |
| 2026-05-04 22:26 | 36.85956 | 145.20869 | 35081 ft | 624 kts | 45° |
| 2026-05-04 22:27 | 36.91825 | 145.28771 | 35068 ft | 623 kts | 45° |
| 2026-05-04 22:27 | 36.97719 | 145.36725 | 35065 ft | 624 kts | 45° |
| 2026-05-04 22:28 | 37.03607 | 145.44691 | 35056 ft | 622 kts | 45° |
| 2026-05-04 22:28 | 37.09447 | 145.52610 | 35056 ft | 623 kts | 45° |
| 2026-05-04 22:29 | 37.15304 | 145.60575 | 35057 ft | 622 kts | 45° |
| 2026-05-04 22:29 | 37.20876 | 145.68854 | 35079 ft | 624 kts | 58° |
| 2026-05-04 22:30 | 37.25487 | 145.78118 | 35058 ft | 625 kts | 58° |
| 2026-05-04 22:30 | 37.30075 | 145.87299 | 35058 ft | 625 kts | 57° |
| 2026-05-04 22:31 | 37.34662 | 145.96533 | 35048 ft | 624 kts | 58° |
| 2026-05-04 22:31 | 37.39262 | 146.05809 | 35046 ft | 624 kts | 57° |
| 2026-05-04 22:32 | 37.43821 | 146.15028 | 35034 ft | 623 kts | 57° |
| 2026-05-04 22:32 | 37.48413 | 146.24346 | 35031 ft | 624 kts | 57° |
| 2026-05-04 22:33 | 37.52955 | 146.33576 | 35252 ft | 629 kts | 59° |
| 2026-05-04 22:33 | 37.55274 | 146.38312 | 35135 ft | 644 kts | 59° |
| 2026-05-04 22:33 | 37.57648 | 146.43163 | 35032 ft | 650 kts | 59° |
| 2026-05-04 22:34 | 37.62397 | 146.52864 | 35039 ft | 650 kts | 59° |
| 2026-05-04 22:34 | 37.67134 | 146.62592 | 35027 ft | 651 kts | 59° |
| 2026-05-04 22:35 | 37.71826 | 146.72243 | 35022 ft | 650 kts | 59° |
| 2026-05-04 22:35 | 37.76539 | 146.81973 | 35024 ft | 649 kts | 59° |
| 2026-05-04 22:36 | 37.81252 | 146.91728 | 35021 ft | 649 kts | 60° |
| 2026-05-04 22:36 | 37.85918 | 147.01417 | 35014 ft | 649 kts | 60° |
| 2026-05-04 22:37 | 37.90596 | 147.11159 | 35008 ft | 648 kts | 60° |
| 2026-05-04 22:37 | 37.95265 | 147.20910 | 35006 ft | 648 kts | 60° |
| 2026-05-04 22:38 | 37.99940 | 147.30705 | 34996 ft | 648 kts | 60° |
| 2026-05-04 22:38 | 38.04589 | 147.40472 | 34988 ft | 647 kts | 60° |
| 2026-05-04 22:39 | 38.09206 | 147.50204 | 34985 ft | 647 kts | 60° |
| 2026-05-04 22:39 | 38.13836 | 147.59993 | 34976 ft | 647 kts | 60° |
| 2026-05-04 22:40 | 38.18458 | 147.69793 | 34972 ft | 647 kts | 60° |
| 2026-05-04 22:40 | 38.23072 | 147.79606 | 34966 ft | 647 kts | 60° |
| 2026-05-04 22:41 | 38.27681 | 147.89439 | 34965 ft | 647 kts | 60° |
| 2026-05-04 22:41 | 38.32274 | 147.99267 | 34961 ft | 647 kts | 60° |
| 2026-05-04 22:42 | 38.36844 | 148.09075 | 34958 ft | 646 kts | 61° |
| 2026-05-04 22:42 | 38.41415 | 148.18916 | 34954 ft | 645 kts | 61° |
| 2026-05-04 22:43 | 38.45976 | 148.28766 | 34952 ft | 646 kts | 61° |
| 2026-05-04 22:43 | 38.50539 | 148.38650 | 34952 ft | 645 kts | 61° |
| 2026-05-04 22:44 | 38.55056 | 148.48467 | 34945 ft | 646 kts | 61° |
| 2026-05-04 22:44 | 38.59593 | 148.58355 | 34939 ft | 645 kts | 61° |
| 2026-05-04 22:45 | 38.64124 | 148.68261 | 34929 ft | 645 kts | 61° |
| 2026-05-04 22:45 | 38.70893 | 148.83119 | 34918 ft | 645 kts | 61° |
| 2026-05-04 22:46 | 38.75382 | 148.93009 | 34918 ft | 645 kts | 62° |
| 2026-05-04 22:46 | 38.79885 | 149.02962 | 34909 ft | 645 kts | 62° |
| 2026-05-04 22:47 | 38.84364 | 149.12893 | 34903 ft | 645 kts | 62° |
| 2026-05-04 22:47 | 38.88828 | 149.22824 | 34901 ft | 645 kts | 62° |
| 2026-05-04 22:48 | 38.93295 | 149.32790 | 34895 ft | 645 kts | 62° |
| 2026-05-04 22:48 | 38.97752 | 149.42767 | 34890 ft | 645 kts | 62° |
| 2026-05-04 22:49 | 39.02191 | 149.52733 | 34887 ft | 644 kts | 62° |
| 2026-05-04 22:49 | 39.06663 | 149.62807 | 34883 ft | 644 kts | 62° |
| 2026-05-04 22:50 | 39.11053 | 149.72728 | 34878 ft | 644 kts | 62° |
| 2026-05-04 22:50 | 39.15305 | 149.82897 | 34900 ft | 639 kts | 72° |
| 2026-05-04 22:51 | 39.17960 | 149.93720 | 34885 ft | 634 kts | 78° |
| 2026-05-04 22:51 | 39.20442 | 150.04555 | 34883 ft | 633 kts | 78° |
| 2026-05-04 22:52 | 39.22932 | 150.15449 | 34879 ft | 632 kts | 79° |
| 2026-05-04 22:52 | 39.25395 | 150.26309 | 34869 ft | 632 kts | 79° |
| 2026-05-04 22:53 | 39.27855 | 150.37177 | 34866 ft | 631 kts | 79° |
| 2026-05-04 22:53 | 39.30299 | 150.48053 | 34858 ft | 629 kts | 79° |
| 2026-05-04 22:54 | 39.32714 | 150.58833 | 34858 ft | 629 kts | 79° |
| 2026-05-04 22:54 | 39.35129 | 150.69679 | 34854 ft | 628 kts | 79° |
| 2026-05-04 22:55 | 39.37534 | 150.80524 | 34848 ft | 628 kts | 79° |
| 2026-05-04 22:55 | 39.39914 | 150.91312 | 34861 ft | 628 kts | 80° |
| 2026-05-04 22:56 | 39.42297 | 151.02163 | 34839 ft | 627 kts | 80° |
| 2026-05-04 22:56 | 39.44661 | 151.12983 | 34834 ft | 626 kts | 80° |
| 2026-05-04 22:57 | 39.47018 | 151.23827 | 34839 ft | 626 kts | 80° |
| 2026-05-04 22:57 | 39.49372 | 151.34710 | 34838 ft | 626 kts | 80° |
| 2026-05-04 22:58 | 39.51690 | 151.45480 | 34834 ft | 626 kts | 80° |
| 2026-05-04 22:58 | 39.54017 | 151.56341 | 34834 ft | 626 kts | 80° |
| 2026-05-04 22:59 | 39.56335 | 151.67221 | 34835 ft | 625 kts | 80° |
| 2026-05-04 22:59 | 39.58636 | 151.78072 | 34831 ft | 625 kts | 80° |
| 2026-05-04 23:00 | 39.60917 | 151.88885 | 34828 ft | 626 kts | 80° |
| 2026-05-04 23:00 | 39.63202 | 151.99769 | 34834 ft | 626 kts | 80° |
| 2026-05-04 23:01 | 39.65473 | 152.10642 | 34830 ft | 625 kts | 81° |
| 2026-05-04 23:01 | 39.67737 | 152.21542 | 34812 ft | 625 kts | 81° |
| 2026-05-04 23:02 | 39.69988 | 152.32431 | 34834 ft | 625 kts | 81° |
| 2026-05-04 23:02 | 39.72215 | 152.43261 | 34834 ft | 623 kts | 81° |
| 2026-05-04 23:03 | 39.74437 | 152.54124 | 34820 ft | 623 kts | 81° |
| 2026-05-04 23:03 | 39.76653 | 152.65016 | 34814 ft | 622 kts | 81° |
| 2026-05-04 23:04 | 39.78853 | 152.75883 | 34816 ft | 622 kts | 81° |
| 2026-05-04 23:04 | 39.81028 | 152.86683 | 34814 ft | 621 kts | 81° |
| 2026-05-04 23:05 | 39.83207 | 152.97562 | 34811 ft | 621 kts | 81° |
| 2026-05-04 23:05 | 39.85369 | 153.08413 | 34806 ft | 620 kts | 81° |
| 2026-05-04 23:06 | 39.87523 | 153.19283 | 34805 ft | 619 kts | 81° |
| 2026-05-04 23:06 | 39.89668 | 153.30158 | 34810 ft | 619 kts | 81° |
| 2026-05-04 23:07 | 39.91775 | 153.40906 | 34801 ft | 618 kts | 81° |
| 2026-05-04 23:07 | 39.93894 | 153.51770 | 34803 ft | 617 kts | 81° |
| 2026-05-04 23:08 | 39.95991 | 153.62581 | 34798 ft | 616 kts | 81° |
| 2026-05-04 23:08 | 39.98068 | 153.73341 | 34795 ft | 616 kts | 81° |
| 2026-05-04 23:09 | 40.00146 | 153.84172 | 34797 ft | 615 kts | 81° |
| 2026-05-04 23:09 | 40.02209 | 153.94982 | 34798 ft | 615 kts | 81° |
| 2026-05-04 23:10 | 40.04261 | 154.05791 | 34794 ft | 614 kts | 81° |
| 2026-05-04 23:10 | 40.06290 | 154.16543 | 34794 ft | 613 kts | 81° |
| 2026-05-04 23:11 | 40.08317 | 154.27340 | 34793 ft | 612 kts | 81° |
| 2026-05-04 23:11 | 40.10331 | 154.38129 | 34793 ft | 612 kts | 81° |
| 2026-05-04 23:12 | 40.12337 | 154.48932 | 34791 ft | 611 kts | 81° |
| 2026-05-04 23:12 | 40.14331 | 154.59734 | 34794 ft | 611 kts | 81° |
| 2026-05-04 23:13 | 40.16298 | 154.70445 | 34794 ft | 611 kts | 81° |
| 2026-05-04 23:13 | 40.18272 | 154.81260 | 34789 ft | 611 kts | 81° |
| 2026-05-04 23:14 | 40.20229 | 154.92043 | 34800 ft | 611 kts | 81° |
| 2026-05-04 23:14 | 40.22175 | 155.02824 | 34799 ft | 611 kts | 82° |
| 2026-05-04 23:15 | 40.24117 | 155.13641 | 34791 ft | 610 kts | 82° |
| 2026-05-04 23:15 | 40.26045 | 155.24452 | 34787 ft | 610 kts | 82° |
| 2026-05-04 23:16 | 40.27964 | 155.35267 | 34787 ft | 610 kts | 82° |
| 2026-05-04 23:16 | 40.29869 | 155.46068 | 34785 ft | 609 kts | 82° |
| 2026-05-04 23:17 | 40.31769 | 155.56909 | 34780 ft | 609 kts | 82° |
| 2026-05-04 23:17 | 40.33639 | 155.67634 | 34786 ft | 609 kts | 82° |
| 2026-05-04 23:18 | 40.35512 | 155.78441 | 34784 ft | 608 kts | 82° |
| 2026-05-04 23:18 | 40.37376 | 155.89269 | 34779 ft | 607 kts | 82° |
| 2026-05-04 23:19 | 40.39218 | 156.00023 | 34781 ft | 606 kts | 82° |
| 2026-05-04 23:19 | 40.41043 | 156.10745 | 34783 ft | 605 kts | 82° |
| 2026-05-04 23:20 | 40.42869 | 156.21542 | 34780 ft | 605 kts | 82° |
| 2026-05-04 23:20 | 40.44680 | 156.32309 | 34781 ft | 604 kts | 82° |
| 2026-05-04 23:21 | 40.46479 | 156.43068 | 34780 ft | 604 kts | 82° |
| 2026-05-04 23:21 | 40.48259 | 156.53783 | 34784 ft | 603 kts | 82° |
| 2026-05-04 23:22 | 40.50032 | 156.64524 | 34786 ft | 603 kts | 82° |
| 2026-05-04 23:22 | 40.51798 | 156.75284 | 34780 ft | 602 kts | 82° |
| 2026-05-04 23:23 | 40.53552 | 156.86036 | 34786 ft | 601 kts | 82° |
| 2026-05-04 23:23 | 40.55286 | 156.96734 | 34782 ft | 600 kts | 82° |
| 2026-05-04 23:24 | 40.57011 | 157.07444 | 34792 ft | 600 kts | 82° |
| 2026-05-04 23:24 | 40.58732 | 157.18194 | 34782 ft | 599 kts | 82° |
| 2026-05-04 23:25 | 40.60435 | 157.28898 | 34783 ft | 599 kts | 82° |
| 2026-05-04 23:25 | 40.62136 | 157.39660 | 34801 ft | 599 kts | 82° |
| 2026-05-04 23:26 | 40.63805 | 157.50290 | 34790 ft | 598 kts | 82° |
| 2026-05-04 23:26 | 40.65482 | 157.61037 | 34792 ft | 599 kts | 82° |
| 2026-05-04 23:27 | 40.67146 | 157.71766 | 34786 ft | 598 kts | 82° |
| 2026-05-04 23:27 | 40.68791 | 157.82442 | 34789 ft | 598 kts | 82° |
| 2026-05-04 23:28 | 40.70442 | 157.93233 | 34798 ft | 598 kts | 82° |
| 2026-05-04 23:28 | 40.72069 | 158.03929 | 34792 ft | 597 kts | 82° |
| 2026-05-04 23:29 | 40.73690 | 158.14659 | 34799 ft | 597 kts | 82° |
| 2026-05-04 23:29 | 40.75297 | 158.25370 | 34792 ft | 597 kts | 82° |
| 2026-05-04 23:30 | 40.76887 | 158.36036 | 34801 ft | 597 kts | 82° |
| 2026-05-04 23:30 | 40.78477 | 158.46777 | 34797 ft | 596 kts | 82° |
| 2026-05-04 23:31 | 40.80058 | 158.57525 | 34800 ft | 596 kts | 82° |
| 2026-05-04 23:31 | 40.81624 | 158.68245 | 34805 ft | 595 kts | 82° |
| 2026-05-04 23:32 | 40.83179 | 158.78964 | 34804 ft | 594 kts | 82° |
| 2026-05-04 23:32 | 40.84714 | 158.89620 | 34807 ft | 594 kts | 82° |
| 2026-05-04 23:33 | 40.86250 | 159.00356 | 34810 ft | 594 kts | 82° |
| 2026-05-04 23:33 | 40.87773 | 159.11071 | 34805 ft | 593 kts | 82° |
| 2026-05-04 23:34 | 40.89275 | 159.21716 | 34810 ft | 593 kts | 82° |
| 2026-05-04 23:34 | 40.90777 | 159.32436 | 34807 ft | 594 kts | 83° |
| 2026-05-04 23:35 | 40.92268 | 159.43149 | 34803 ft | 593 kts | 83° |
| 2026-05-04 23:35 | 40.93747 | 159.53852 | 34805 ft | 592 kts | 83° |
| 2026-05-04 23:36 | 40.95220 | 159.64590 | 34810 ft | 592 kts | 83° |
| 2026-05-04 23:36 | 40.96668 | 159.75221 | 34814 ft | 591 kts | 83° |
| 2026-05-04 23:37 | 40.98111 | 159.85896 | 34809 ft | 589 kts | 83° |
| 2026-05-04 23:37 | 40.99546 | 159.96592 | 34806 ft | 589 kts | 83° |
| 2026-05-04 23:38 | 41.00326 | 160.07294 | 34823 ft | 585 kts | 90° |
| 2026-05-04 23:38 | 41.00761 | 160.18066 | 34828 ft | 585 kts | 90° |
| 2026-05-04 23:39 | 41.01221 | 160.28831 | 34826 ft | 584 kts | 90° |
| 2026-05-04 23:39 | 41.01639 | 160.39475 | 34822 ft | 584 kts | 90° |
| 2026-05-04 23:40 | 41.02071 | 160.50237 | 34824 ft | 584 kts | 90° |
| 2026-05-04 23:40 | 41.02479 | 160.60989 | 34818 ft | 585 kts | 90° |
| 2026-05-04 23:41 | 41.02886 | 160.71726 | 34820 ft | 585 kts | 90° |
| 2026-05-04 23:41 | 41.03276 | 160.82443 | 34823 ft | 585 kts | 90° |
| 2026-05-04 23:42 | 41.03661 | 160.93170 | 34824 ft | 584 kts | 90° |
| 2026-05-04 23:42 | 41.04034 | 161.03937 | 34821 ft | 584 kts | 90° |
| 2026-05-04 23:43 | 41.04397 | 161.14652 | 34827 ft | 583 kts | 90° |
| 2026-05-04 23:43 | 41.04750 | 161.25386 | 34833 ft | 583 kts | 90° |
| 2026-05-04 23:44 | 41.05091 | 161.36060 | 34833 ft | 582 kts | 90° |
| 2026-05-04 23:44 | 41.05423 | 161.46774 | 34831 ft | 582 kts | 90° |
| 2026-05-04 23:45 | 41.05745 | 161.57464 | 34842 ft | 582 kts | 90° |
| 2026-05-04 23:45 | 41.06058 | 161.68172 | 34852 ft | 582 kts | 90° |
| 2026-05-04 23:46 | 41.06360 | 161.78880 | 34845 ft | 581 kts | 90° |
| 2026-05-04 23:46 | 41.06651 | 161.89526 | 34842 ft | 580 kts | 90° |
| 2026-05-04 23:47 | 41.06933 | 162.00207 | 34843 ft | 580 kts | 90° |
| 2026-05-04 23:47 | 41.07205 | 162.10879 | 34845 ft | 580 kts | 90° |
| 2026-05-04 23:48 | 41.07466 | 162.21505 | 34855 ft | 580 kts | 90° |
| 2026-05-04 23:48 | 41.07719 | 162.32237 | 34858 ft | 581 kts | 90° |
| 2026-05-04 23:49 | 41.07961 | 162.42856 | 34853 ft | 580 kts | 90° |
| 2026-05-04 23:49 | 41.08194 | 162.53553 | 34860 ft | 580 kts | 90° |
| 2026-05-04 23:50 | 41.08417 | 162.64243 | 34865 ft | 580 kts | 91° |
| 2026-05-04 23:50 | 41.08630 | 162.74934 | 34863 ft | 579 kts | 91° |
| 2026-05-04 23:51 | 41.08831 | 162.85526 | 34869 ft | 579 kts | 91° |
| 2026-05-04 23:51 | 41.09024 | 162.96214 | 34870 ft | 579 kts | 91° |
| 2026-05-04 23:52 | 41.09207 | 163.06867 | 34871 ft | 578 kts | 91° |
| 2026-05-04 23:52 | 41.09380 | 163.17512 | 34874 ft | 578 kts | 91° |
| 2026-05-04 23:53 | 41.09542 | 163.28100 | 34881 ft | 579 kts | 91° |
| 2026-05-04 23:53 | 41.09696 | 163.38766 | 34883 ft | 579 kts | 91° |
| 2026-05-04 23:54 | 41.09840 | 163.49443 | 34888 ft | 579 kts | 91° |
| 2026-05-04 23:54 | 41.09974 | 163.60114 | 34891 ft | 578 kts | 91° |
| 2026-05-04 23:55 | 41.10098 | 163.70746 | 34895 ft | 577 kts | 91° |
| 2026-05-04 23:56 | 41.10264 | 163.86639 | 34900 ft | 575 kts | 91° |
| 2026-05-04 23:56 | 41.10363 | 163.97213 | 34901 ft | 575 kts | 91° |
| 2026-05-04 23:57 | 41.10453 | 164.07820 | 34908 ft | 575 kts | 91° |
| 2026-05-04 23:57 | 41.10532 | 164.18423 | 34903 ft | 576 kts | 91° |
| 2026-05-04 23:58 | 41.10602 | 164.28993 | 34909 ft | 578 kts | 91° |
| 2026-05-04 23:58 | 41.10662 | 164.39648 | 34922 ft | 579 kts | 91° |
| 2026-05-04 23:59 | 41.10713 | 164.50352 | 34925 ft | 580 kts | 91° |
| 2026-05-04 23:59 | 41.10754 | 164.61068 | 34932 ft | 582 kts | 91° |
| 2026-05-05 00:00 | 41.10785 | 164.71725 | 34941 ft | 583 kts | 91° |
| 2026-05-05 00:00 | 41.10807 | 164.82470 | 34945 ft | 583 kts | 91° |
| 2026-05-05 00:01 | 41.10818 | 164.93235 | 34947 ft | 583 kts | 91° |
| 2026-05-05 00:01 | 41.10819 | 165.03925 | 34955 ft | 583 kts | 91° |
| 2026-05-05 00:02 | 41.10811 | 165.14678 | 34952 ft | 583 kts | 91° |
| 2026-05-05 00:02 | 41.10792 | 165.25345 | 34953 ft | 584 kts | 91° |
| 2026-05-05 00:03 | 41.10764 | 165.36108 | 34963 ft | 584 kts | 91° |
| 2026-05-05 00:03 | 41.10725 | 165.46807 | 34964 ft | 583 kts | 91° |
| 2026-05-05 00:04 | 41.10677 | 165.57559 | 34969 ft | 583 kts | 91° |
| 2026-05-05 00:04 | 41.10618 | 165.68298 | 34976 ft | 584 kts | 91° |
| 2026-05-05 00:05 | 41.10550 | 165.79086 | 34982 ft | 584 kts | 91° |
| 2026-05-05 00:05 | 41.10471 | 165.89806 | 34988 ft | 585 kts | 91° |
| 2026-05-05 00:06 | 41.10383 | 166.00577 | 34991 ft | 584 kts | 91° |
| 2026-05-05 00:06 | 41.10284 | 166.11348 | 34994 ft | 584 kts | 91° |
| 2026-05-05 00:07 | 41.10175 | 166.22105 | 35001 ft | 583 kts | 91° |
| 2026-05-05 00:07 | 41.10057 | 166.32803 | 35007 ft | 584 kts | 91° |
| 2026-05-05 00:08 | 41.09928 | 166.43609 | 35013 ft | 584 kts | 91° |
| 2026-05-05 00:08 | 41.09790 | 166.54333 | 35018 ft | 585 kts | 91° |
| 2026-05-05 00:09 | 41.09641 | 166.65114 | 35024 ft | 585 kts | 91° |
| 2026-05-05 00:09 | 41.09482 | 166.75901 | 35032 ft | 584 kts | 91° |
| 2026-05-05 00:10 | 41.09315 | 166.86582 | 35038 ft | 585 kts | 91° |
| 2026-05-05 00:10 | 41.09134 | 166.97450 | 35044 ft | 585 kts | 91° |
| 2026-05-05 00:11 | 41.08946 | 167.08159 | 35056 ft | 586 kts | 91° |
| 2026-05-05 00:11 | 41.08747 | 167.18945 | 35057 ft | 586 kts | 91° |
| 2026-05-05 00:12 | 41.08538 | 167.29732 | 35063 ft | 585 kts | 91° |
| 2026-05-05 00:12 | 41.08320 | 167.40451 | 35066 ft | 585 kts | 91° |
| 2026-05-05 00:13 | 41.08091 | 167.51230 | 35071 ft | 585 kts | 91° |
| 2026-05-05 00:13 | 41.07852 | 167.61997 | 35075 ft | 585 kts | 91° |
| 2026-05-05 00:14 | 41.07603 | 167.72755 | 35079 ft | 585 kts | 91° |
| 2026-05-05 00:14 | 41.07345 | 167.83463 | 35078 ft | 585 kts | 91° |
| 2026-05-05 00:15 | 41.07076 | 167.94221 | 35081 ft | 585 kts | 91° |
| 2026-05-05 00:15 | 41.06797 | 168.05010 | 35089 ft | 586 kts | 91° |
| 2026-05-05 00:16 | 41.06506 | 168.15816 | 35092 ft | 586 kts | 91° |
| 2026-05-05 00:16 | 41.06207 | 168.26598 | 35092 ft | 587 kts | 91° |
| 2026-05-05 00:17 | 41.05899 | 168.37313 | 35097 ft | 586 kts | 91° |
| 2026-05-05 00:17 | 41.05579 | 168.48101 | 35104 ft | 586 kts | 91° |
| 2026-05-05 00:18 | 41.05248 | 168.58903 | 35107 ft | 587 kts | 91° |
| 2026-05-05 00:18 | 41.04909 | 168.69650 | 35112 ft | 586 kts | 91° |
| 2026-05-05 00:19 | 41.04559 | 168.80432 | 35112 ft | 587 kts | 91° |
| 2026-05-05 00:19 | 41.04199 | 168.91218 | 35114 ft | 587 kts | 91° |
| 2026-05-05 00:20 | 41.03828 | 169.02026 | 35116 ft | 587 kts | 91° |
| 2026-05-05 00:20 | 41.03449 | 169.12786 | 35120 ft | 587 kts | 91° |
| 2026-05-05 00:21 | 41.03058 | 169.23574 | 35122 ft | 587 kts | 91° |
| 2026-05-05 00:21 | 41.02724 | 169.32569 | 35125 ft | 587 kts | 91° |
| 2026-05-05 00:22 | 41.02315 | 169.43372 | 35128 ft | 587 kts | 91° |
| 2026-05-05 00:22 | 41.01826 | 169.55909 | 35128 ft | 587 kts | 91° |
| 2026-05-05 00:23 | 41.01396 | 169.66689 | 35129 ft | 587 kts | 91° |
| 2026-05-05 00:23 | 41.00955 | 169.77477 | 35135 ft | 586 kts | 91° |
| 2026-05-05 00:24 | 41.00582 | 169.86406 | 35139 ft | 586 kts | 91° |
| 2026-05-05 00:24 | 41.00123 | 169.97181 | 35143 ft | 586 kts | 91° |
| 2026-05-05 00:25 | 41.00339 | 170.07917 | 35141 ft | 582 kts | 83° |
| 2026-05-05 00:25 | 41.00795 | 170.18602 | 35145 ft | 583 kts | 84° |
| 2026-05-05 00:26 | 41.01231 | 170.29321 | 35149 ft | 582 kts | 83° |
| 2026-05-05 00:26 | 41.01667 | 170.40019 | 35138 ft | 583 kts | 83° |
| 2026-05-05 00:27 | 41.02085 | 170.50725 | 35143 ft | 582 kts | 83° |
| 2026-05-05 00:27 | 41.02500 | 170.61454 | 35145 ft | 583 kts | 83° |
| 2026-05-05 00:28 | 41.02899 | 170.72146 | 35150 ft | 582 kts | 83° |
| 2026-05-05 00:28 | 41.03293 | 170.82875 | 35154 ft | 582 kts | 83° |
| 2026-05-05 00:29 | 41.03674 | 170.93591 | 35153 ft | 582 kts | 83° |
| 2026-05-05 00:29 | 41.04047 | 171.04297 | 35157 ft | 583 kts | 83° |
| 2026-05-05 00:30 | 41.04409 | 171.15026 | 35157 ft | 583 kts | 83° |
| 2026-05-05 00:30 | 41.04762 | 171.25757 | 35160 ft | 583 kts | 83° |
| 2026-05-05 00:31 | 41.05104 | 171.36470 | 35162 ft | 583 kts | 83° |
| 2026-05-05 00:31 | 41.05437 | 171.47223 | 35161 ft | 582 kts | 83° |
| 2026-05-05 00:32 | 41.05760 | 171.57947 | 35157 ft | 583 kts | 83° |
| 2026-05-05 00:32 | 41.06072 | 171.68671 | 35159 ft | 583 kts | 83° |
| 2026-05-05 00:33 | 41.06376 | 171.79429 | 35155 ft | 584 kts | 83° |
| 2026-05-05 00:33 | 41.06668 | 171.90161 | 35160 ft | 584 kts | 83° |
| 2026-05-05 00:34 | 41.06951 | 172.00909 | 35164 ft | 584 kts | 83° |
| 2026-05-05 00:34 | 41.07223 | 172.11615 | 35166 ft | 584 kts | 83° |
| 2026-05-05 00:35 | 41.07488 | 172.22415 | 35163 ft | 584 kts | 83° |
| 2026-05-05 00:35 | 41.07741 | 172.33168 | 35165 ft | 584 kts | 82° |
| 2026-05-05 00:36 | 41.07983 | 172.43864 | 35163 ft | 584 kts | 82° |
| 2026-05-05 00:36 | 41.08217 | 172.54635 | 35167 ft | 584 kts | 82° |
| 2026-05-05 00:37 | 41.08439 | 172.65364 | 35167 ft | 584 kts | 82° |
| 2026-05-05 00:37 | 41.08654 | 172.76169 | 35169 ft | 585 kts | 82° |
| 2026-05-05 00:38 | 41.08857 | 172.86913 | 35168 ft | 585 kts | 82° |
| 2026-05-05 00:38 | 41.09051 | 172.97721 | 35171 ft | 586 kts | 82° |
| 2026-05-05 00:39 | 41.09235 | 173.08540 | 35172 ft | 586 kts | 82° |
| 2026-05-05 00:39 | 41.09409 | 173.19330 | 35167 ft | 587 kts | 82° |
| 2026-05-05 00:40 | 41.09572 | 173.30128 | 35169 ft | 587 kts | 82° |
| 2026-05-05 00:40 | 41.09727 | 173.40973 | 35174 ft | 587 kts | 82° |
| 2026-05-05 00:41 | 41.09870 | 173.51794 | 35158 ft | 588 kts | 82° |
| 2026-05-05 00:41 | 41.10004 | 173.62620 | 35162 ft | 588 kts | 82° |
| 2026-05-05 00:42 | 41.10128 | 173.73477 | 35169 ft | 589 kts | 82° |
| 2026-05-05 00:42 | 41.10241 | 173.84284 | 35168 ft | 590 kts | 82° |
| 2026-05-05 00:43 | 41.10344 | 173.95147 | 35162 ft | 590 kts | 82° |
| 2026-05-05 00:43 | 41.10438 | 174.06024 | 35164 ft | 590 kts | 82° |
| 2026-05-05 00:44 | 41.10522 | 174.16986 | 35165 ft | 590 kts | 82° |
| 2026-05-05 00:44 | 41.10595 | 174.27871 | 35165 ft | 591 kts | 82° |
| 2026-05-05 00:45 | 41.10658 | 174.38676 | 35159 ft | 592 kts | 82° |
| 2026-05-05 00:45 | 41.10710 | 174.49589 | 35164 ft | 592 kts | 82° |
| 2026-05-05 00:46 | 41.10753 | 174.60506 | 35163 ft | 593 kts | 83° |
| 2026-05-05 00:46 | 41.10785 | 174.71439 | 35160 ft | 593 kts | 83° |
| 2026-05-05 00:47 | 41.10807 | 174.82393 | 35155 ft | 594 kts | 83° |
| 2026-05-05 00:47 | 41.10818 | 174.93318 | 35155 ft | 594 kts | 83° |
| 2026-05-05 00:48 | 41.10820 | 175.04276 | 35156 ft | 595 kts | 83° |
| 2026-05-05 00:48 | 41.10810 | 175.15250 | 35151 ft | 596 kts | 83° |
| 2026-05-05 00:49 | 41.10790 | 175.26249 | 35149 ft | 596 kts | 83° |
| 2026-05-05 00:49 | 41.10760 | 175.37250 | 35135 ft | 596 kts | 83° |
| 2026-05-05 00:50 | 41.10720 | 175.48178 | 35143 ft | 597 kts | 83° |
| 2026-05-05 00:50 | 41.10669 | 175.59188 | 35141 ft | 597 kts | 83° |
| 2026-05-05 00:51 | 41.10606 | 175.70278 | 35132 ft | 598 kts | 83° |
| 2026-05-05 00:51 | 41.10534 | 175.81263 | 35137 ft | 598 kts | 83° |
| 2026-05-05 00:52 | 41.10452 | 175.92234 | 35135 ft | 597 kts | 83° |
| 2026-05-05 00:52 | 41.10359 | 176.03239 | 35131 ft | 597 kts | 83° |
| 2026-05-05 00:53 | 41.10256 | 176.14230 | 35125 ft | 597 kts | 83° |
| 2026-05-05 00:53 | 41.10142 | 176.25261 | 35127 ft | 597 kts | 83° |
| 2026-05-05 00:54 | 41.10017 | 176.36232 | 35126 ft | 596 kts | 83° |
| 2026-05-05 00:54 | 41.09882 | 176.47252 | 35117 ft | 596 kts | 83° |
| 2026-05-05 00:55 | 41.09738 | 176.58222 | 35122 ft | 597 kts | 82° |
| 2026-05-05 00:55 | 41.09582 | 176.69225 | 35109 ft | 597 kts | 82° |
| 2026-05-05 00:56 | 41.09415 | 176.80250 | 35111 ft | 597 kts | 82° |
| 2026-05-05 00:56 | 41.09239 | 176.91221 | 35109 ft | 597 kts | 82° |
| 2026-05-05 00:57 | 41.09052 | 177.02242 | 35107 ft | 597 kts | 82° |
| 2026-05-05 00:57 | 41.08854 | 177.13248 | 35107 ft | 598 kts | 82° |
| 2026-05-05 00:58 | 41.08646 | 177.24257 | 35093 ft | 598 kts | 82° |
| 2026-05-05 00:58 | 41.08427 | 177.35243 | 35097 ft | 599 kts | 82° |
| 2026-05-05 00:59 | 41.08197 | 177.46288 | 35091 ft | 600 kts | 82° |
| 2026-05-05 00:59 | 41.07957 | 177.57325 | 35096 ft | 600 kts | 82° |
| 2026-05-05 01:00 | 41.07705 | 177.68400 | 35089 ft | 601 kts | 82° |
| 2026-05-05 01:00 | 41.07442 | 177.79482 | 35078 ft | 602 kts | 82° |
| 2026-05-05 01:01 | 41.07169 | 177.90579 | 35084 ft | 603 kts | 82° |
| 2026-05-05 01:01 | 41.06884 | 178.01682 | 35078 ft | 604 kts | 82° |
| 2026-05-05 01:02 | 41.06587 | 178.12840 | 35077 ft | 604 kts | 82° |
| 2026-05-05 01:02 | 41.06281 | 178.23955 | 35080 ft | 605 kts | 82° |
| 2026-05-05 01:03 | 41.05964 | 178.35065 | 35074 ft | 604 kts | 82° |
| 2026-05-05 01:03 | 41.05637 | 178.46184 | 35070 ft | 604 kts | 82° |
| 2026-05-05 01:04 | 41.05297 | 178.57318 | 35065 ft | 605 kts | 82° |
| 2026-05-05 01:04 | 41.04769 | 178.74028 | 35058 ft | 605 kts | 82° |
| 2026-05-05 01:05 | 41.04404 | 178.85155 | 35052 ft | 605 kts | 82° |
| 2026-05-05 01:05 | 41.04027 | 178.96278 | 35057 ft | 606 kts | 82° |
| 2026-05-05 01:06 | 41.03639 | 179.07425 | 35053 ft | 606 kts | 82° |
| 2026-05-05 01:06 | 41.03242 | 179.18519 | 35048 ft | 605 kts | 82° |
| 2026-05-05 01:07 | 41.02831 | 179.29708 | 35045 ft | 605 kts | 82° |
| 2026-05-05 01:07 | 41.02414 | 179.40778 | 35036 ft | 605 kts | 82° |
| 2026-05-05 01:08 | 41.01981 | 179.51982 | 35029 ft | 605 kts | 81° |
| 2026-05-05 01:08 | 41.01540 | 179.63102 | 35030 ft | 605 kts | 81° |
| 2026-05-05 01:09 | 41.01093 | 179.74111 | 35022 ft | 605 kts | 81° |
| 2026-05-05 01:09 | 41.00631 | 179.85252 | 35015 ft | 605 kts | 81° |
| 2026-05-05 01:10 | 41.00158 | 179.96374 | 35015 ft | 605 kts | 81° |
| 2026-05-05 01:10 | 40.99704 | -179.98047 | 35025 ft | 619 kts | 90° |
| 2026-05-05 01:10 | 40.98859 | -179.92463 | 35009 ft | 622 kts | 91° |
| 2026-05-05 01:11 | 40.97131 | -179.81232 | 35011 ft | 622 kts | 91° |
| 2026-05-05 01:11 | 40.95406 | -179.70002 | 35012 ft | 622 kts | 91° |
| 2026-05-05 01:12 | 40.93959 | -179.60693 | 35012 ft | 623 kts | 91° |
| 2026-05-05 01:12 | 40.92209 | -179.49472 | 34993 ft | 622 kts | 91° |
| 2026-05-05 01:13 | 40.90453 | -179.38294 | 35002 ft | 623 kts | 91° |
| 2026-05-05 01:13 | 40.88681 | -179.27096 | 34998 ft | 623 kts | 91° |
| 2026-05-05 01:14 | 40.86892 | -179.15853 | 34991 ft | 624 kts | 91° |
| 2026-05-05 01:14 | 40.85101 | -179.04686 | 34993 ft | 624 kts | 91° |
| 2026-05-05 01:15 | 40.83289 | -178.93449 | 34992 ft | 624 kts | 91° |
| 2026-05-05 01:15 | 40.81467 | -178.82234 | 34985 ft | 625 kts | 91° |
| 2026-05-05 01:16 | 40.79636 | -178.71027 | 34986 ft | 625 kts | 91° |
| 2026-05-05 01:16 | 40.77802 | -178.59875 | 34981 ft | 626 kts | 91° |
| 2026-05-05 01:17 | 40.75928 | -178.48553 | 34974 ft | 628 kts | 92° |
| 2026-05-05 01:17 | 40.74068 | -178.37398 | 34978 ft | 629 kts | 92° |
| 2026-05-05 01:18 | 40.72182 | -178.26146 | 34970 ft | 629 kts | 92° |
| 2026-05-05 01:18 | 40.70277 | -178.14862 | 34971 ft | 630 kts | 92° |
| 2026-05-05 01:19 | 40.68368 | -178.03618 | 34964 ft | 631 kts | 92° |
| 2026-05-05 01:19 | 40.66435 | -177.92307 | 34950 ft | 631 kts | 92° |
| 2026-05-05 01:20 | 40.64500 | -177.81051 | 34961 ft | 632 kts | 92° |
| 2026-05-05 01:20 | 40.62539 | -177.69718 | 34962 ft | 634 kts | 92° |
| 2026-05-05 01:21 | 40.60570 | -177.58411 | 34959 ft | 635 kts | 92° |
| 2026-05-05 01:21 | 40.58584 | -177.47077 | 34953 ft | 637 kts | 92° |
| 2026-05-05 01:22 | 40.56580 | -177.35707 | 34954 ft | 638 kts | 92° |
| 2026-05-05 01:22 | 40.54565 | -177.24346 | 34956 ft | 639 kts | 92° |
| 2026-05-05 01:23 | 40.52532 | -177.12953 | 34939 ft | 641 kts | 93° |
| 2026-05-05 01:23 | 40.50482 | -177.01536 | 34946 ft | 642 kts | 93° |
| 2026-05-05 01:24 | 40.48423 | -176.90139 | 34943 ft | 643 kts | 93° |
| 2026-05-05 01:24 | 40.46347 | -176.78717 | 34937 ft | 643 kts | 94° |
| 2026-05-05 01:25 | 40.44256 | -176.67280 | 34935 ft | 643 kts | 94° |
| 2026-05-05 01:25 | 40.42152 | -176.55843 | 34937 ft | 644 kts | 94° |
| 2026-05-05 01:26 | 40.40041 | -176.44431 | 34929 ft | 645 kts | 94° |
| 2026-05-05 01:26 | 40.37912 | -176.32996 | 34931 ft | 645 kts | 94° |
| 2026-05-05 01:27 | 40.35787 | -176.21643 | 34925 ft | 646 kts | 95° |
| 2026-05-05 01:27 | 40.33636 | -176.10226 | 34928 ft | 645 kts | 95° |
| 2026-05-05 01:28 | 40.31473 | -175.98806 | 34925 ft | 645 kts | 95° |
| 2026-05-05 01:28 | 40.29301 | -175.87410 | 34918 ft | 645 kts | 96° |
| 2026-05-05 01:29 | 40.27116 | -175.76006 | 34914 ft | 644 kts | 96° |
| 2026-05-05 01:29 | 40.24922 | -175.64629 | 34914 ft | 644 kts | 96° |
| 2026-05-05 01:30 | 40.22726 | -175.53299 | 34907 ft | 644 kts | 97° |
| 2026-05-05 01:30 | 40.20514 | -175.41954 | 34917 ft | 643 kts | 97° |
| 2026-05-05 01:31 | 40.18292 | -175.30619 | 34912 ft | 643 kts | 97° |
| 2026-05-05 01:31 | 40.16062 | -175.19310 | 34912 ft | 643 kts | 97° |
| 2026-05-05 01:32 | 40.13822 | -175.08010 | 34912 ft | 642 kts | 98° |
| 2026-05-05 01:32 | 40.11572 | -174.96721 | 34912 ft | 642 kts | 98° |
| 2026-05-05 01:33 | 40.09308 | -174.85431 | 34905 ft | 642 kts | 98° |
| 2026-05-05 01:33 | 40.07038 | -174.74167 | 34908 ft | 642 kts | 99° |
| 2026-05-05 01:34 | 40.04757 | -174.62920 | 34905 ft | 640 kts | 99° |
| 2026-05-05 01:34 | 40.02472 | -174.51702 | 34892 ft | 640 kts | 99° |
| 2026-05-05 01:35 | 40.00176 | -174.40495 | 34898 ft | 639 kts | 99° |
| 2026-05-05 01:35 | 39.97882 | -174.29361 | 34902 ft | 638 kts | 100° |
| 2026-05-05 01:36 | 39.95574 | -174.18214 | 34899 ft | 637 kts | 100° |
| 2026-05-05 01:36 | 39.93256 | -174.07079 | 34901 ft | 636 kts | 101° |
| 2026-05-05 01:37 | 39.90933 | -173.95980 | 34902 ft | 636 kts | 101° |
| 2026-05-05 01:37 | 39.88599 | -173.84883 | 34900 ft | 635 kts | 101° |
| 2026-05-05 01:38 | 39.86257 | -173.73807 | 34897 ft | 635 kts | 101° |
| 2026-05-05 01:38 | 39.83902 | -173.62729 | 34896 ft | 635 kts | 102° |
| 2026-05-05 01:39 | 39.81534 | -173.51645 | 34892 ft | 635 kts | 102° |
| 2026-05-05 01:39 | 39.79163 | -173.40603 | 34893 ft | 634 kts | 102° |
| 2026-05-05 01:40 | 39.76783 | -173.29579 | 34893 ft | 634 kts | 102° |
| 2026-05-05 01:40 | 39.74389 | -173.18545 | 34895 ft | 633 kts | 103° |
| 2026-05-05 01:41 | 39.71992 | -173.07551 | 34893 ft | 633 kts | 103° |
| 2026-05-05 01:41 | 39.69581 | -172.96546 | 34895 ft | 632 kts | 103° |
| 2026-05-05 01:42 | 39.67166 | -172.85582 | 34895 ft | 632 kts | 103° |
| 2026-05-05 01:42 | 39.64741 | -172.74626 | 34893 ft | 631 kts | 103° |
| 2026-05-05 01:43 | 39.62312 | -172.63706 | 34894 ft | 631 kts | 104° |
| 2026-05-05 01:43 | 39.59862 | -172.52741 | 34890 ft | 631 kts | 104° |
| 2026-05-05 01:44 | 39.57409 | -172.41822 | 34891 ft | 631 kts | 104° |
| 2026-05-05 01:44 | 39.54963 | -172.30985 | 34893 ft | 631 kts | 104° |
| 2026-05-05 01:45 | 39.52496 | -172.20109 | 34892 ft | 631 kts | 104° |
| 2026-05-05 01:45 | 39.49991 | -172.09118 | 34893 ft | 630 kts | 105° |
| 2026-05-05 01:46 | 39.47509 | -171.98275 | 34891 ft | 630 kts | 105° |
| 2026-05-05 01:46 | 39.44999 | -171.87371 | 34895 ft | 630 kts | 105° |
| 2026-05-05 01:47 | 39.42513 | -171.76614 | 34893 ft | 630 kts | 105° |
| 2026-05-05 01:47 | 39.39999 | -171.65791 | 34895 ft | 629 kts | 105° |
| 2026-05-05 01:48 | 39.37467 | -171.54941 | 34894 ft | 629 kts | 106° |
| 2026-05-05 01:48 | 39.34928 | -171.44112 | 34898 ft | 629 kts | 106° |
| 2026-05-05 01:49 | 39.32383 | -171.33311 | 34896 ft | 628 kts | 106° |
| 2026-05-05 01:49 | 39.29833 | -171.22533 | 34898 ft | 628 kts | 106° |
| 2026-05-05 01:50 | 39.27271 | -171.11757 | 34897 ft | 627 kts | 107° |
| 2026-05-05 01:50 | 39.24704 | -171.01009 | 34898 ft | 627 kts | 107° |
| 2026-05-05 01:51 | 39.22130 | -170.90285 | 34895 ft | 626 kts | 107° |
| 2026-05-05 01:51 | 39.19545 | -170.79559 | 34893 ft | 626 kts | 107° |
| 2026-05-05 01:52 | 39.16955 | -170.68863 | 34894 ft | 625 kts | 107° |
| 2026-05-05 01:52 | 39.14359 | -170.58188 | 34899 ft | 625 kts | 108° |
| 2026-05-05 01:53 | 39.11744 | -170.47487 | 34903 ft | 625 kts | 108° |
| 2026-05-05 01:53 | 39.09128 | -170.36823 | 34896 ft | 625 kts | 108° |
| 2026-05-05 01:54 | 39.06517 | -170.26231 | 34900 ft | 624 kts | 108° |
| 2026-05-05 01:54 | 39.03871 | -170.15548 | 34903 ft | 624 kts | 108° |
| 2026-05-05 01:55 | 39.01240 | -170.04966 | 34902 ft | 623 kts | 108° |
| 2026-05-05 01:55 | 38.98584 | -169.94305 | 34911 ft | 623 kts | 108° |
| 2026-05-05 01:56 | 38.95968 | -169.83681 | 34909 ft | 622 kts | 109° |
| 2026-05-05 01:56 | 38.93347 | -169.73200 | 34910 ft | 622 kts | 109° |
| 2026-05-05 01:57 | 38.90709 | -169.62620 | 34912 ft | 622 kts | 109° |
| 2026-05-05 01:57 | 38.88055 | -169.52067 | 34915 ft | 621 kts | 109° |
| 2026-05-05 01:58 | 38.85391 | -169.41496 | 34913 ft | 621 kts | 109° |
| 2026-05-05 01:58 | 38.82726 | -169.30978 | 34916 ft | 621 kts | 110° |
| 2026-05-05 01:59 | 38.80052 | -169.20464 | 34927 ft | 620 kts | 110° |
| 2026-05-05 01:59 | 38.77365 | -169.09947 | 34923 ft | 620 kts | 110° |
| 2026-05-05 02:00 | 38.74677 | -168.99470 | 34922 ft | 619 kts | 110° |
| 2026-05-05 02:00 | 38.71978 | -168.88994 | 34921 ft | 618 kts | 110° |
| 2026-05-05 02:01 | 38.69294 | -168.78623 | 34920 ft | 617 kts | 110° |
| 2026-05-05 02:01 | 38.66572 | -168.68141 | 34922 ft | 618 kts | 110° |
| 2026-05-05 02:02 | 38.63868 | -168.57778 | 34926 ft | 618 kts | 111° |
| 2026-05-05 02:02 | 38.61142 | -168.47373 | 34934 ft | 617 kts | 111° |
| 2026-05-05 02:03 | 38.58846 | -168.38643 | 34928 ft | 616 kts | 111° |
| 2026-05-05 02:03 | 38.56133 | -168.28366 | 34927 ft | 616 kts | 111° |
| 2026-05-05 02:04 | 38.53370 | -168.17941 | 34936 ft | 615 kts | 111° |
| 2026-05-05 02:04 | 38.50638 | -168.07675 | 34933 ft | 614 kts | 111° |
| 2026-05-05 02:05 | 38.47882 | -167.97361 | 34935 ft | 613 kts | 111° |
| 2026-05-05 02:05 | 38.45120 | -167.87065 | 34937 ft | 613 kts | 111° |
| 2026-05-05 02:06 | 38.42352 | -167.76791 | 34943 ft | 613 kts | 112° |
| 2026-05-05 02:06 | 38.39569 | -167.66499 | 34942 ft | 612 kts | 112° |
| 2026-05-05 02:07 | 38.36792 | -167.56271 | 34940 ft | 611 kts | 112° |
| 2026-05-05 02:07 | 38.33998 | -167.46023 | 34952 ft | 612 kts | 112° |
| 2026-05-05 02:08 | 38.31198 | -167.35793 | 34963 ft | 613 kts | 112° |
| 2026-05-05 02:08 | 38.28385 | -167.25550 | 34955 ft | 610 kts | 112° |
| 2026-05-05 02:09 | 38.25575 | -167.15369 | 34959 ft | 610 kts | 112° |
| 2026-05-05 02:09 | 38.22758 | -167.05194 | 34967 ft | 609 kts | 112° |
| 2026-05-05 02:10 | 38.19939 | -166.95056 | 34969 ft | 609 kts | 112° |
| 2026-05-05 02:10 | 38.17105 | -166.84899 | 34970 ft | 609 kts | 112° |
| 2026-05-05 02:11 | 38.14276 | -166.74802 | 34976 ft | 608 kts | 113° |
| 2026-05-05 02:11 | 38.11424 | -166.64662 | 34980 ft | 609 kts | 113° |
| 2026-05-05 02:12 | 38.07133 | -166.49476 | 34992 ft | 608 kts | 113° |
| 2026-05-05 02:13 | 38.04266 | -166.39380 | 34992 ft | 608 kts | 113° |
| 2026-05-05 02:13 | 38.01398 | -166.29316 | 34995 ft | 608 kts | 113° |
| 2026-05-05 02:14 | 37.98510 | -166.19224 | 35004 ft | 608 kts | 113° |
| 2026-05-05 02:14 | 37.95638 | -166.09222 | 35009 ft | 607 kts | 113° |
| 2026-05-05 02:15 | 37.92729 | -165.99130 | 35012 ft | 607 kts | 113° |
| 2026-05-05 02:15 | 37.89839 | -165.89139 | 35021 ft | 607 kts | 113° |
| 2026-05-05 02:16 | 37.86917 | -165.79076 | 35025 ft | 606 kts | 113° |
| 2026-05-05 02:16 | 37.84017 | -165.69127 | 35025 ft | 606 kts | 114° |
| 2026-05-05 02:17 | 37.81095 | -165.59138 | 35035 ft | 606 kts | 114° |
| 2026-05-05 02:17 | 37.78157 | -165.49134 | 35040 ft | 606 kts | 114° |
| 2026-05-05 02:18 | 37.75222 | -165.39174 | 35047 ft | 606 kts | 114° |
| 2026-05-05 02:18 | 37.72270 | -165.29194 | 35052 ft | 606 kts | 114° |
| 2026-05-05 02:19 | 37.69319 | -165.19254 | 35054 ft | 605 kts | 114° |
| 2026-05-05 02:19 | 37.66350 | -165.09289 | 35062 ft | 606 kts | 114° |
| 2026-05-05 02:20 | 37.63378 | -164.99348 | 35064 ft | 606 kts | 114° |
| 2026-05-05 02:20 | 37.60391 | -164.89394 | 35069 ft | 607 kts | 114° |
| 2026-05-05 02:21 | 37.57399 | -164.79458 | 35080 ft | 606 kts | 114° |
| 2026-05-05 02:21 | 37.54399 | -164.69535 | 35091 ft | 606 kts | 114° |
| 2026-05-05 02:22 | 37.51388 | -164.59607 | 35093 ft | 605 kts | 114° |
| 2026-05-05 02:22 | 37.48375 | -164.49709 | 35091 ft | 605 kts | 114° |
| 2026-05-05 02:23 | 37.45361 | -164.39844 | 35096 ft | 605 kts | 115° |
| 2026-05-05 02:23 | 37.42336 | -164.29976 | 35105 ft | 604 kts | 115° |
| 2026-05-05 02:24 | 37.39298 | -164.20104 | 35108 ft | 607 kts | 115° |
| 2026-05-05 02:24 | 37.36255 | -164.10241 | 35110 ft | 604 kts | 115° |
| 2026-05-05 02:25 | 37.33208 | -164.00410 | 35109 ft | 603 kts | 115° |
| 2026-05-05 02:25 | 37.30148 | -163.90567 | 35116 ft | 603 kts | 115° |
| 2026-05-05 02:26 | 37.27112 | -163.80837 | 35124 ft | 604 kts | 115° |
| 2026-05-05 02:26 | 37.24042 | -163.71029 | 35124 ft | 604 kts | 115° |
| 2026-05-05 02:27 | 37.20960 | -163.61217 | 35127 ft | 603 kts | 115° |
| 2026-05-05 02:27 | 37.17875 | -163.51429 | 35135 ft | 603 kts | 115° |
| 2026-05-05 02:28 | 37.14784 | -163.41657 | 35138 ft | 603 kts | 115° |
| 2026-05-05 02:28 | 37.11692 | -163.31912 | 35141 ft | 603 kts | 115° |
| 2026-05-05 02:29 | 37.08585 | -163.22156 | 35151 ft | 603 kts | 115° |
| 2026-05-05 02:29 | 37.05472 | -163.12415 | 35149 ft | 603 kts | 115° |
| 2026-05-05 02:30 | 37.02351 | -163.02681 | 35146 ft | 603 kts | 115° |
| 2026-05-05 02:30 | 36.99219 | -162.92943 | 35152 ft | 603 kts | 116° |
| 2026-05-05 02:31 | 36.96079 | -162.83213 | 35155 ft | 602 kts | 116° |
| 2026-05-05 02:31 | 36.92943 | -162.73533 | 35151 ft | 602 kts | 116° |
| 2026-05-05 02:32 | 36.89808 | -162.63881 | 35159 ft | 602 kts | 116° |
| 2026-05-05 02:32 | 36.86639 | -162.54161 | 35162 ft | 602 kts | 116° |
| 2026-05-05 02:33 | 36.83464 | -162.44457 | 35157 ft | 602 kts | 116° |
| 2026-05-05 02:33 | 36.80296 | -162.34802 | 35164 ft | 602 kts | 116° |
| 2026-05-05 02:34 | 36.77107 | -162.25116 | 35167 ft | 602 kts | 116° |
| 2026-05-05 02:34 | 36.73926 | -162.15486 | 35171 ft | 602 kts | 116° |
| 2026-05-05 02:35 | 36.70733 | -162.05851 | 35174 ft | 602 kts | 116° |
| 2026-05-05 02:35 | 36.67544 | -161.96260 | 35175 ft | 602 kts | 116° |
| 2026-05-05 02:36 | 36.64333 | -161.86634 | 35182 ft | 602 kts | 116° |
| 2026-05-05 02:36 | 36.61114 | -161.77016 | 35181 ft | 602 kts | 116° |
| 2026-05-05 02:37 | 36.57886 | -161.67403 | 35183 ft | 601 kts | 116° |
| 2026-05-05 02:37 | 36.54660 | -161.57824 | 35188 ft | 601 kts | 116° |
| 2026-05-05 02:38 | 36.51420 | -161.48235 | 35190 ft | 601 kts | 116° |
| 2026-05-05 02:38 | 36.48178 | -161.38671 | 35191 ft | 600 kts | 116° |
| 2026-05-05 02:39 | 36.44927 | -161.29114 | 35195 ft | 600 kts | 117° |
| 2026-05-05 02:39 | 36.41679 | -161.19591 | 35197 ft | 600 kts | 117° |
| 2026-05-05 02:40 | 36.38415 | -161.10056 | 35203 ft | 600 kts | 117° |
| 2026-05-05 02:40 | 36.35148 | -161.00539 | 35220 ft | 600 kts | 117° |
| 2026-05-05 02:41 | 36.31867 | -160.91013 | 35214 ft | 599 kts | 117° |
| 2026-05-05 02:41 | 36.28598 | -160.81548 | 35204 ft | 598 kts | 117° |
| 2026-05-05 02:42 | 36.25306 | -160.72051 | 35212 ft | 598 kts | 117° |
| 2026-05-05 02:42 | 36.22018 | -160.62594 | 35208 ft | 599 kts | 117° |
| 2026-05-05 02:43 | 36.18733 | -160.53173 | 35214 ft | 599 kts | 117° |
| 2026-05-05 02:43 | 36.15407 | -160.43664 | 35212 ft | 599 kts | 117° |
| 2026-05-05 02:44 | 36.12092 | -160.34217 | 35219 ft | 599 kts | 117° |
| 2026-05-05 02:44 | 36.08783 | -160.24816 | 35220 ft | 598 kts | 117° |
| 2026-05-05 02:45 | 36.05460 | -160.15404 | 35219 ft | 598 kts | 117° |
| 2026-05-05 02:45 | 36.02133 | -160.06007 | 35222 ft | 598 kts | 117° |
| 2026-05-05 02:46 | 35.99418 | -159.96284 | 35245 ft | 604 kts | 102° |
| 2026-05-05 02:46 | 35.97845 | -159.86092 | 35254 ft | 604 kts | 102° |
| 2026-05-05 02:47 | 35.96251 | -159.75905 | 35257 ft | 604 kts | 103° |
| 2026-05-05 02:47 | 35.94656 | -159.65753 | 35242 ft | 604 kts | 102° |
| 2026-05-05 02:48 | 35.93050 | -159.55584 | 35238 ft | 603 kts | 103° |
| 2026-05-05 02:48 | 35.91436 | -159.45441 | 35238 ft | 602 kts | 103° |
| 2026-05-05 02:49 | 35.89819 | -159.35309 | 35237 ft | 602 kts | 103° |
| 2026-05-05 02:49 | 35.88188 | -159.25175 | 35233 ft | 602 kts | 103° |
| 2026-05-05 02:50 | 35.86553 | -159.15053 | 35230 ft | 602 kts | 103° |
| 2026-05-05 02:50 | 35.84909 | -159.04945 | 35246 ft | 601 kts | 103° |
| 2026-05-05 02:51 | 35.83535 | -158.96529 | 35247 ft | 601 kts | 103° |
| 2026-05-05 02:51 | 35.81878 | -158.86446 | 35245 ft | 601 kts | 103° |
| 2026-05-05 02:52 | 35.80211 | -158.76344 | 35247 ft | 601 kts | 103° |
| 2026-05-05 02:52 | 35.78533 | -158.66243 | 35244 ft | 601 kts | 103° |
| 2026-05-05 02:53 | 35.76853 | -158.56176 | 35245 ft | 600 kts | 103° |
| 2026-05-05 02:53 | 35.75168 | -158.46134 | 35242 ft | 599 kts | 103° |
| 2026-05-05 02:54 | 35.73472 | -158.36087 | 35244 ft | 598 kts | 103° |
| 2026-05-05 02:54 | 35.71777 | -158.26092 | 35243 ft | 597 kts | 103° |
| 2026-05-05 02:55 | 35.70071 | -158.16092 | 35246 ft | 597 kts | 103° |
| 2026-05-05 02:55 | 35.68361 | -158.06115 | 35249 ft | 595 kts | 104° |
| 2026-05-05 02:56 | 35.66714 | -157.96557 | 35255 ft | 595 kts | 104° |
| 2026-05-05 02:56 | 35.64988 | -157.86593 | 35251 ft | 594 kts | 104° |
| 2026-05-05 02:57 | 35.63260 | -157.76667 | 35252 ft | 594 kts | 104° |
| 2026-05-05 02:57 | 35.62439 | -157.71970 | 35256 ft | 594 kts | 104° |
| 2026-05-05 02:58 | 35.60699 | -157.62048 | 35254 ft | 594 kts | 104° |
| 2026-05-05 02:58 | 35.58952 | -157.52141 | 35261 ft | 594 kts | 104° |
| 2026-05-05 02:59 | 35.57193 | -157.42215 | 35264 ft | 594 kts | 104° |
| 2026-05-05 02:59 | 35.55430 | -157.32313 | 35257 ft | 593 kts | 104° |
| 2026-05-05 03:00 | 35.53665 | -157.22454 | 35260 ft | 592 kts | 104° |
| 2026-05-05 03:00 | 35.51897 | -157.12624 | 35263 ft | 592 kts | 104° |
| 2026-05-05 03:01 | 35.50107 | -157.02727 | 35256 ft | 591 kts | 104° |
| 2026-05-05 03:01 | 35.48329 | -156.92940 | 35260 ft | 591 kts | 104° |
| 2026-05-05 03:02 | 35.46519 | -156.83025 | 35267 ft | 592 kts | 105° |
| 2026-05-05 03:02 | 35.44726 | -156.73252 | 35268 ft | 591 kts | 105° |
| 2026-05-05 03:03 | 35.42936 | -156.63537 | 35542 ft | 576 kts | 105° |
| 2026-05-05 03:03 | 35.42059 | -156.58777 | 36969 ft | 557 kts | 105° |
| 2026-05-05 03:03 | 35.41198 | -156.54147 | 37601 ft | 557 kts | 105° |
| 2026-05-05 03:03 | 35.40330 | -156.49502 | 38209 ft | 556 kts | 105° |
| 2026-05-05 03:04 | 35.39471 | -156.44890 | 38835 ft | 555 kts | 105° |
| 2026-05-05 03:04 | 35.38616 | -156.40290 | 39244 ft | 557 kts | 105° |
| 2026-05-05 03:04 | 35.37744 | -156.35632 | 39258 ft | 563 kts | 105° |
| 2026-05-05 03:05 | 35.35991 | -156.26307 | 39262 ft | 564 kts | 105° |
| 2026-05-05 03:05 | 35.34194 | -156.16780 | 39286 ft | 581 kts | 105° |
| 2026-05-05 03:06 | 35.32371 | -156.07150 | 39284 ft | 580 kts | 105° |
| 2026-05-05 03:06 | 35.30540 | -155.97534 | 39285 ft | 578 kts | 105° |
| 2026-05-05 03:07 | 35.28711 | -155.87972 | 39285 ft | 577 kts | 105° |
| 2026-05-05 03:07 | 35.26877 | -155.78423 | 39280 ft | 576 kts | 105° |
| 2026-05-05 03:08 | 35.25032 | -155.68865 | 39276 ft | 575 kts | 105° |
| 2026-05-05 03:08 | 35.23192 | -155.59373 | 39269 ft | 575 kts | 105° |
| 2026-05-05 03:09 | 35.21335 | -155.49838 | 39268 ft | 576 kts | 105° |
| 2026-05-05 03:09 | 35.19470 | -155.40305 | 39264 ft | 576 kts | 105° |
| 2026-05-05 03:10 | 35.17599 | -155.30779 | 39271 ft | 576 kts | 105° |
| 2026-05-05 03:10 | 35.15728 | -155.21295 | 39269 ft | 575 kts | 105° |
| 2026-05-05 03:11 | 35.13850 | -155.11823 | 39265 ft | 573 kts | 106° |
| 2026-05-05 03:11 | 35.11972 | -155.02389 | 39263 ft | 571 kts | 106° |
| 2026-05-05 03:12 | 35.10103 | -154.93044 | 39270 ft | 569 kts | 106° |
| 2026-05-05 03:12 | 35.08205 | -154.83593 | 39272 ft | 569 kts | 107° |
| 2026-05-05 03:13 | 35.06321 | -154.74250 | 39265 ft | 568 kts | 107° |
| 2026-05-05 03:13 | 35.04437 | -154.64947 | 39267 ft | 567 kts | 107° |
| 2026-05-05 03:14 | 35.02536 | -154.55604 | 39271 ft | 567 kts | 107° |
| 2026-05-05 03:14 | 35.00634 | -154.46289 | 39268 ft | 567 kts | 107° |
| 2026-05-05 03:15 | 34.98718 | -154.36951 | 39272 ft | 566 kts | 107° |
| 2026-05-05 03:15 | 34.96805 | -154.27663 | 39270 ft | 566 kts | 107° |
| 2026-05-05 03:16 | 34.94876 | -154.18335 | 39268 ft | 566 kts | 107° |
| 2026-05-05 03:16 | 34.92949 | -154.09058 | 39268 ft | 565 kts | 107° |
| 2026-05-05 03:17 | 34.91013 | -153.99777 | 39273 ft | 564 kts | 107° |
| 2026-05-05 03:17 | 34.89076 | -153.90527 | 39265 ft | 563 kts | 107° |
| 2026-05-05 03:18 | 34.87136 | -153.81302 | 39270 ft | 563 kts | 107° |
| 2026-05-05 03:18 | 34.85188 | -153.72074 | 39265 ft | 563 kts | 108° |
| 2026-05-05 03:19 | 34.82251 | -153.58234 | 39265 ft | 563 kts | 108° |
| 2026-05-05 03:19 | 34.80300 | -153.49083 | 39278 ft | 562 kts | 108° |
| 2026-05-05 03:20 | 34.78329 | -153.39876 | 39260 ft | 562 kts | 108° |
| 2026-05-05 03:20 | 34.76352 | -153.30683 | 39264 ft | 562 kts | 108° |
| 2026-05-05 03:21 | 34.74373 | -153.21514 | 39263 ft | 561 kts | 108° |
| 2026-05-05 03:21 | 34.72371 | -153.12270 | 39263 ft | 560 kts | 108° |
| 2026-05-05 03:22 | 34.70397 | -153.03199 | 39262 ft | 559 kts | 108° |
| 2026-05-05 03:22 | 34.68410 | -152.94097 | 39259 ft | 558 kts | 108° |
| 2026-05-05 03:23 | 34.66410 | -152.84976 | 39256 ft | 557 kts | 108° |
| 2026-05-05 03:23 | 34.64409 | -152.75883 | 39257 ft | 558 kts | 108° |
| 2026-05-05 03:24 | 34.62402 | -152.66799 | 39260 ft | 558 kts | 108° |
| 2026-05-05 03:24 | 34.60382 | -152.57692 | 39256 ft | 558 kts | 108° |
| 2026-05-05 03:25 | 34.58354 | -152.48580 | 39259 ft | 558 kts | 108° |
| 2026-05-05 03:25 | 34.56323 | -152.39494 | 39253 ft | 558 kts | 108° |
| 2026-05-05 03:26 | 34.54301 | -152.30480 | 39253 ft | 558 kts | 108° |
| 2026-05-05 03:26 | 34.52253 | -152.21383 | 39261 ft | 558 kts | 108° |
| 2026-05-05 03:27 | 34.50193 | -152.12270 | 39254 ft | 558 kts | 108° |
| 2026-05-05 03:27 | 34.48147 | -152.03253 | 39254 ft | 558 kts | 108° |
| 2026-05-05 03:28 | 34.46084 | -151.94191 | 39249 ft | 558 kts | 108° |
| 2026-05-05 03:28 | 34.44019 | -151.85159 | 39251 ft | 558 kts | 109° |
| 2026-05-05 03:29 | 34.41933 | -151.76065 | 39249 ft | 559 kts | 109° |
| 2026-05-05 03:29 | 34.39832 | -151.66941 | 39250 ft | 561 kts | 109° |
| 2026-05-05 03:30 | 34.37742 | -151.57899 | 39248 ft | 561 kts | 109° |
| 2026-05-05 03:30 | 34.35617 | -151.48740 | 39245 ft | 560 kts | 109° |
| 2026-05-05 03:31 | 34.33515 | -151.39712 | 39247 ft | 558 kts | 109° |
| 2026-05-05 03:31 | 34.31416 | -151.30732 | 39242 ft | 558 kts | 109° |
| 2026-05-05 03:32 | 34.29289 | -151.21664 | 39244 ft | 557 kts | 109° |
| 2026-05-05 03:32 | 34.27182 | -151.12711 | 39254 ft | 556 kts | 109° |
| 2026-05-05 03:33 | 34.25059 | -151.03724 | 39250 ft | 555 kts | 109° |
| 2026-05-05 03:33 | 34.22934 | -150.94764 | 39244 ft | 554 kts | 109° |
| 2026-05-05 03:34 | 34.20802 | -150.85802 | 39241 ft | 554 kts | 109° |
| 2026-05-05 03:34 | 34.18668 | -150.76868 | 39234 ft | 554 kts | 109° |
| 2026-05-05 03:35 | 34.16528 | -150.67937 | 39238 ft | 553 kts | 109° |
| 2026-05-05 03:35 | 34.14389 | -150.59040 | 39236 ft | 552 kts | 109° |
| 2026-05-05 03:36 | 34.12240 | -150.50136 | 39235 ft | 552 kts | 109° |
| 2026-05-05 03:36 | 34.10095 | -150.41277 | 39237 ft | 551 kts | 109° |
| 2026-05-05 03:37 | 34.07936 | -150.32394 | 39238 ft | 551 kts | 109° |
| 2026-05-05 03:37 | 34.05771 | -150.23516 | 39234 ft | 551 kts | 109° |
| 2026-05-05 03:38 | 34.03953 | -150.16087 | 39232 ft | 551 kts | 109° |
| 2026-05-05 03:38 | 34.01793 | -150.07282 | 39237 ft | 552 kts | 109° |
| 2026-05-05 03:39 | 33.99689 | -149.98323 | 39248 ft | 553 kts | 103° |
| 2026-05-05 03:39 | 33.98083 | -149.89207 | 39235 ft | 555 kts | 104° |
| 2026-05-05 03:40 | 33.96450 | -149.80135 | 39240 ft | 556 kts | 104° |
| 2026-05-05 03:40 | 33.94822 | -149.71062 | 39233 ft | 558 kts | 104° |
| 2026-05-05 03:41 | 33.93170 | -149.61926 | 39234 ft | 558 kts | 104° |
| 2026-05-05 03:41 | 33.91505 | -149.52751 | 39236 ft | 558 kts | 104° |
| 2026-05-05 03:42 | 33.89857 | -149.43706 | 39230 ft | 557 kts | 104° |
| 2026-05-05 03:42 | 33.88178 | -149.34539 | 39232 ft | 557 kts | 104° |
| 2026-05-05 03:43 | 33.86513 | -149.25482 | 39226 ft | 557 kts | 104° |
| 2026-05-05 03:43 | 33.84833 | -149.16390 | 39226 ft | 557 kts | 104° |
| 2026-05-05 03:44 | 33.83143 | -149.07274 | 39220 ft | 558 kts | 104° |
| 2026-05-05 03:44 | 33.81449 | -148.98185 | 39221 ft | 558 kts | 104° |
| 2026-05-05 03:45 | 33.79743 | -148.89070 | 39214 ft | 558 kts | 104° |
| 2026-05-05 03:45 | 33.78034 | -148.79979 | 39214 ft | 558 kts | 104° |
| 2026-05-05 03:46 | 33.76319 | -148.70890 | 39216 ft | 558 kts | 104° |
| 2026-05-05 03:46 | 33.74594 | -148.61792 | 39217 ft | 558 kts | 104° |
| 2026-05-05 03:47 | 33.72875 | -148.52756 | 39210 ft | 558 kts | 104° |
| 2026-05-05 03:47 | 33.71142 | -148.43695 | 39211 ft | 558 kts | 104° |
| 2026-05-05 03:48 | 33.69389 | -148.34563 | 39213 ft | 558 kts | 104° |
| 2026-05-05 03:48 | 33.67649 | -148.25536 | 39216 ft | 558 kts | 104° |
| 2026-05-05 03:49 | 33.65894 | -148.16473 | 39215 ft | 557 kts | 104° |
| 2026-05-05 03:49 | 33.64132 | -148.07411 | 39219 ft | 557 kts | 104° |
| 2026-05-05 03:50 | 33.62370 | -147.98382 | 39221 ft | 557 kts | 104° |
| 2026-05-05 03:50 | 33.60593 | -147.89316 | 39217 ft | 557 kts | 104° |
| 2026-05-05 03:51 | 33.58816 | -147.80292 | 39217 ft | 557 kts | 104° |
| 2026-05-05 03:51 | 33.57031 | -147.71259 | 39218 ft | 557 kts | 104° |
| 2026-05-05 03:52 | 33.55242 | -147.62244 | 39220 ft | 556 kts | 104° |
| 2026-05-05 03:52 | 33.53444 | -147.53219 | 39221 ft | 555 kts | 104° |
| 2026-05-05 03:53 | 33.51642 | -147.44211 | 39229 ft | 556 kts | 104° |
| 2026-05-05 03:53 | 33.49832 | -147.35203 | 39232 ft | 556 kts | 104° |
| 2026-05-05 03:54 | 33.48018 | -147.26205 | 39233 ft | 556 kts | 104° |
| 2026-05-05 03:54 | 33.46194 | -147.17196 | 39231 ft | 556 kts | 104° |
| 2026-05-05 03:55 | 33.44363 | -147.08194 | 39231 ft | 556 kts | 104° |
| 2026-05-05 03:55 | 33.42539 | -146.99254 | 39232 ft | 555 kts | 104° |
| 2026-05-05 03:56 | 33.40685 | -146.90208 | 39232 ft | 555 kts | 104° |
| 2026-05-05 03:56 | 33.38852 | -146.81296 | 39237 ft | 555 kts | 104° |
| 2026-05-05 03:57 | 33.37003 | -146.72343 | 39237 ft | 554 kts | 104° |
| 2026-05-05 03:57 | 33.35152 | -146.63412 | 39238 ft | 553 kts | 104° |
| 2026-05-05 03:58 | 33.33294 | -146.54489 | 39239 ft | 553 kts | 104° |
| 2026-05-05 03:58 | 33.31430 | -146.45566 | 39240 ft | 553 kts | 104° |
| 2026-05-05 03:59 | 33.29558 | -146.36641 | 39246 ft | 553 kts | 104° |
| 2026-05-05 03:59 | 33.27684 | -146.27739 | 39241 ft | 554 kts | 104° |
| 2026-05-05 04:00 | 33.25795 | -146.18803 | 39246 ft | 554 kts | 104° |
| 2026-05-05 04:00 | 33.23900 | -146.09871 | 39246 ft | 556 kts | 104° |
| 2026-05-05 04:01 | 33.21998 | -146.00938 | 39249 ft | 557 kts | 104° |
| 2026-05-05 04:01 | 33.20080 | -145.91965 | 39257 ft | 557 kts | 104° |
| 2026-05-05 04:02 | 33.18159 | -145.83014 | 39255 ft | 558 kts | 104° |
| 2026-05-05 04:02 | 33.16225 | -145.74033 | 39261 ft | 559 kts | 104° |
| 2026-05-05 04:03 | 33.14295 | -145.65107 | 39261 ft | 558 kts | 104° |
| 2026-05-05 04:03 | 33.12340 | -145.56099 | 39263 ft | 558 kts | 104° |
| 2026-05-05 04:04 | 33.10403 | -145.47205 | 39263 ft | 557 kts | 104° |
| 2026-05-05 04:04 | 33.08450 | -145.38274 | 39257 ft | 557 kts | 104° |
| 2026-05-05 04:05 | 33.06488 | -145.29334 | 39258 ft | 557 kts | 104° |
| 2026-05-05 04:05 | 33.04524 | -145.20415 | 39259 ft | 557 kts | 104° |
| 2026-05-05 04:06 | 33.02554 | -145.11503 | 39259 ft | 556 kts | 104° |
| 2026-05-05 04:06 | 33.00594 | -145.02604 | 39263 ft | 555 kts | 101° |
| 2026-05-05 04:07 | 33.00081 | -144.98056 | 39307 ft | 552 kts | 89° |
| 2026-05-05 04:07 | 33.00136 | -144.93513 | 39266 ft | 552 kts | 86° |
| 2026-05-05 04:07 | 33.00299 | -144.84341 | 39280 ft | 551 kts | 87° |
| 2026-05-05 04:08 | 33.00472 | -144.75239 | 39282 ft | 550 kts | 86° |
| 2026-05-05 04:08 | 33.00630 | -144.66122 | 39280 ft | 549 kts | 87° |
| 2026-05-05 04:09 | 33.00783 | -144.57089 | 39281 ft | 549 kts | 87° |
| 2026-05-05 04:09 | 33.00931 | -144.47949 | 39279 ft | 549 kts | 87° |
| 2026-05-05 04:10 | 33.01070 | -144.38911 | 39276 ft | 549 kts | 87° |
| 2026-05-05 04:10 | 33.01205 | -144.29782 | 39278 ft | 548 kts | 87° |
| 2026-05-05 04:11 | 33.01330 | -144.20760 | 39277 ft | 547 kts | 87° |
| 2026-05-05 04:11 | 33.01451 | -144.11652 | 39281 ft | 547 kts | 87° |
| 2026-05-05 04:12 | 33.01564 | -144.02594 | 39285 ft | 546 kts | 87° |
| 2026-05-05 04:12 | 33.01671 | -143.93580 | 39282 ft | 546 kts | 87° |
| 2026-05-05 04:13 | 33.01772 | -143.84479 | 39281 ft | 546 kts | 87° |
| 2026-05-05 04:13 | 33.01866 | -143.75446 | 39281 ft | 545 kts | 87° |
| 2026-05-05 04:14 | 33.01952 | -143.66487 | 39284 ft | 545 kts | 87° |
| 2026-05-05 04:14 | 33.02033 | -143.57468 | 39280 ft | 544 kts | 87° |
| 2026-05-05 04:15 | 33.02106 | -143.48484 | 39278 ft | 543 kts | 87° |
| 2026-05-05 04:15 | 33.02174 | -143.39479 | 39280 ft | 542 kts | 87° |
| 2026-05-05 04:16 | 33.02235 | -143.30489 | 39280 ft | 542 kts | 87° |
| 2026-05-05 04:16 | 33.02289 | -143.21514 | 39279 ft | 541 kts | 87° |
| 2026-05-05 04:17 | 33.02337 | -143.12548 | 39284 ft | 541 kts | 88° |
| 2026-05-05 04:17 | 33.02379 | -143.03596 | 39282 ft | 540 kts | 88° |
| 2026-05-05 04:18 | 33.02414 | -142.94655 | 39283 ft | 540 kts | 88° |
| 2026-05-05 04:18 | 33.02442 | -142.85710 | 39281 ft | 540 kts | 88° |
| 2026-05-05 04:19 | 33.02465 | -142.76786 | 39282 ft | 540 kts | 88° |
| 2026-05-05 04:19 | 33.02481 | -142.67780 | 39282 ft | 540 kts | 88° |
| 2026-05-05 04:20 | 33.02490 | -142.58841 | 39287 ft | 539 kts | 88° |
| 2026-05-05 04:20 | 33.02493 | -142.49929 | 39285 ft | 539 kts | 88° |
| 2026-05-05 04:21 | 33.02490 | -142.41010 | 39283 ft | 538 kts | 88° |
| 2026-05-05 04:21 | 33.02481 | -142.32075 | 39280 ft | 538 kts | 88° |
| 2026-05-05 04:22 | 33.02464 | -142.23212 | 39283 ft | 538 kts | 88° |
| 2026-05-05 04:22 | 33.02442 | -142.14257 | 39279 ft | 538 kts | 88° |
| 2026-05-05 04:23 | 33.02414 | -142.05347 | 39285 ft | 538 kts | 88° |
| 2026-05-05 04:23 | 33.02379 | -141.96444 | 39289 ft | 537 kts | 88° |
| 2026-05-05 04:24 | 33.02338 | -141.87536 | 39290 ft | 537 kts | 88° |
| 2026-05-05 04:25 | 33.02273 | -141.75673 | 39291 ft | 537 kts | 88° |
| 2026-05-05 04:25 | 33.02207 | -141.65284 | 39289 ft | 537 kts | 88° |
| 2026-05-05 04:26 | 33.02144 | -141.56455 | 39286 ft | 537 kts | 89° |
| 2026-05-05 04:26 | 33.02075 | -141.47545 | 39288 ft | 537 kts | 89° |
| 2026-05-05 04:27 | 33.02012 | -141.40091 | 39291 ft | 537 kts | 89° |
| 2026-05-05 04:27 | 33.01930 | -141.31183 | 39281 ft | 541 kts | 89° |
| 2026-05-05 04:28 | 33.01843 | -141.22123 | 39286 ft | 552 kts | 89° |
| 2026-05-05 04:28 | 33.01744 | -141.13032 | 39293 ft | 549 kts | 89° |
| 2026-05-05 04:29 | 33.01643 | -141.03892 | 39289 ft | 549 kts | 89° |
| 2026-05-05 04:29 | 33.01532 | -140.94816 | 39290 ft | 549 kts | 89° |
| 2026-05-05 04:30 | 33.01418 | -140.85757 | 39286 ft | 549 kts | 89° |
| 2026-05-05 04:30 | 33.01295 | -140.76659 | 39288 ft | 549 kts | 89° |
| 2026-05-05 04:31 | 33.01166 | -140.67510 | 39288 ft | 549 kts | 89° |
| 2026-05-05 04:31 | 33.01031 | -140.58487 | 39291 ft | 549 kts | 89° |
| 2026-05-05 04:32 | 33.00889 | -140.49399 | 39292 ft | 549 kts | 89° |
| 2026-05-05 04:32 | 33.00740 | -140.40306 | 39291 ft | 549 kts | 89° |
| 2026-05-05 04:33 | 33.00584 | -140.31204 | 39289 ft | 549 kts | 89° |
| 2026-05-05 04:33 | 33.00422 | -140.22110 | 39293 ft | 549 kts | 90° |
| 2026-05-05 04:34 | 33.00253 | -140.13005 | 39282 ft | 549 kts | 90° |
| 2026-05-05 04:34 | 33.00079 | -140.03943 | 39287 ft | 548 kts | 90° |
| 2026-05-05 04:35 | 33.00345 | -139.94887 | 39274 ft | 547 kts | 83° |
| 2026-05-05 04:35 | 33.00989 | -139.85833 | 39290 ft | 548 kts | 83° |
| 2026-05-05 04:36 | 33.01589 | -139.76821 | 39292 ft | 548 kts | 83° |
| 2026-05-05 04:36 | 33.02210 | -139.67770 | 39288 ft | 548 kts | 83° |
| 2026-05-05 04:37 | 33.02808 | -139.58716 | 39283 ft | 547 kts | 83° |
| 2026-05-05 04:37 | 33.03409 | -139.49666 | 39287 ft | 547 kts | 83° |
| 2026-05-05 04:38 | 33.03996 | -139.40645 | 39287 ft | 547 kts | 84° |
| 2026-05-05 04:38 | 33.04580 | -139.31616 | 39290 ft | 547 kts | 84° |
| 2026-05-05 04:39 | 33.05156 | -139.22577 | 39290 ft | 546 kts | 84° |
| 2026-05-05 04:39 | 33.05723 | -139.13595 | 39283 ft | 547 kts | 84° |
| 2026-05-05 04:40 | 33.06289 | -139.04525 | 39286 ft | 547 kts | 84° |
| 2026-05-05 04:40 | 33.06846 | -138.95487 | 39288 ft | 547 kts | 84° |
| 2026-05-05 04:41 | 33.07397 | -138.86435 | 39283 ft | 547 kts | 84° |
| 2026-05-05 04:41 | 33.07941 | -138.77397 | 39282 ft | 547 kts | 84° |
| 2026-05-05 04:42 | 33.08479 | -138.68350 | 39282 ft | 547 kts | 84° |
| 2026-05-05 04:42 | 33.09007 | -138.59355 | 39282 ft | 547 kts | 84° |
| 2026-05-05 04:43 | 33.09535 | -138.50257 | 39278 ft | 547 kts | 84° |
| 2026-05-05 04:43 | 33.10051 | -138.41254 | 39277 ft | 547 kts | 84° |
| 2026-05-05 04:44 | 33.10563 | -138.32190 | 39283 ft | 547 kts | 84° |
| 2026-05-05 04:44 | 33.11069 | -138.23127 | 39275 ft | 547 kts | 84° |
| 2026-05-05 04:45 | 33.11568 | -138.14067 | 39278 ft | 547 kts | 84° |
| 2026-05-05 04:45 | 33.12059 | -138.05035 | 39278 ft | 547 kts | 84° |
| 2026-05-05 04:46 | 33.12546 | -137.95952 | 39279 ft | 547 kts | 84° |
| 2026-05-05 04:46 | 33.13024 | -137.86918 | 39275 ft | 546 kts | 84° |
| 2026-05-05 04:47 | 33.13494 | -137.77908 | 39277 ft | 547 kts | 84° |
| 2026-05-05 04:47 | 33.13960 | -137.68838 | 39276 ft | 547 kts | 84° |
| 2026-05-05 04:48 | 33.14420 | -137.59774 | 39270 ft | 547 kts | 84° |
| 2026-05-05 04:48 | 33.14873 | -137.50701 | 39271 ft | 547 kts | 84° |
| 2026-05-05 04:49 | 33.15317 | -137.41687 | 39276 ft | 547 kts | 84° |
| 2026-05-05 04:49 | 33.15757 | -137.32624 | 39267 ft | 547 kts | 84° |
| 2026-05-05 04:50 | 33.16192 | -137.23520 | 39267 ft | 547 kts | 84° |
| 2026-05-05 04:50 | 33.16615 | -137.14525 | 39269 ft | 547 kts | 84° |
| 2026-05-05 04:51 | 33.17036 | -137.05444 | 39274 ft | 546 kts | 84° |
| 2026-05-05 04:51 | 33.17449 | -136.96398 | 39269 ft | 546 kts | 84° |
| 2026-05-05 04:52 | 33.17855 | -136.87354 | 39268 ft | 546 kts | 84° |
| 2026-05-05 04:52 | 33.18255 | -136.78293 | 39269 ft | 546 kts | 84° |
| 2026-05-05 04:53 | 33.18645 | -136.69324 | 39264 ft | 547 kts | 84° |
| 2026-05-05 04:53 | 33.19029 | -136.60318 | 39267 ft | 547 kts | 84° |
| 2026-05-05 04:54 | 33.19410 | -136.51243 | 39269 ft | 548 kts | 84° |
| 2026-05-05 04:54 | 33.19785 | -136.42150 | 39268 ft | 548 kts | 84° |
| 2026-05-05 04:55 | 33.20154 | -136.33057 | 39265 ft | 547 kts | 84° |
| 2026-05-05 04:55 | 33.20515 | -136.23985 | 39259 ft | 547 kts | 84° |
| 2026-05-05 04:56 | 33.20867 | -136.14958 | 39262 ft | 547 kts | 84° |
| 2026-05-05 04:56 | 33.21217 | -136.05835 | 39261 ft | 547 kts | 84° |
| 2026-05-05 04:57 | 33.21558 | -135.96761 | 39260 ft | 546 kts | 84° |
| 2026-05-05 04:57 | 33.21892 | -135.87700 | 39259 ft | 546 kts | 84° |
| 2026-05-05 04:58 | 33.22218 | -135.78693 | 39265 ft | 546 kts | 85° |
| 2026-05-05 04:58 | 33.22541 | -135.69585 | 39253 ft | 545 kts | 85° |
| 2026-05-05 04:59 | 33.22854 | -135.60546 | 39258 ft | 545 kts | 85° |
| 2026-05-05 04:59 | 33.23159 | -135.51565 | 39259 ft | 545 kts | 85° |
| 2026-05-05 05:00 | 33.23460 | -135.42524 | 39256 ft | 544 kts | 85° |
| 2026-05-05 05:00 | 33.23754 | -135.33469 | 39255 ft | 544 kts | 85° |
| 2026-05-05 05:01 | 33.24041 | -135.24452 | 39252 ft | 544 kts | 85° |
| 2026-05-05 05:01 | 33.24322 | -135.15419 | 39261 ft | 545 kts | 85° |
| 2026-05-05 05:02 | 33.24597 | -135.06337 | 39253 ft | 546 kts | 85° |
| 2026-05-05 05:02 | 33.24866 | -134.97279 | 39252 ft | 547 kts | 85° |
| 2026-05-05 05:03 | 33.25128 | -134.88182 | 39250 ft | 547 kts | 85° |
| 2026-05-05 05:03 | 33.25384 | -134.79126 | 39246 ft | 547 kts | 85° |
| 2026-05-05 05:04 | 33.25633 | -134.70022 | 39241 ft | 546 kts | 85° |
| 2026-05-05 05:04 | 33.25875 | -134.60964 | 39243 ft | 545 kts | 85° |
| 2026-05-05 05:05 | 33.26110 | -134.51923 | 39245 ft | 545 kts | 85° |
| 2026-05-05 05:05 | 33.26339 | -134.42858 | 39238 ft | 545 kts | 85° |
| 2026-05-05 05:06 | 33.26560 | -134.33828 | 39234 ft | 545 kts | 85° |
| 2026-05-05 05:06 | 33.26775 | -134.24812 | 39234 ft | 545 kts | 85° |
| 2026-05-05 05:07 | 33.26985 | -134.15710 | 39229 ft | 546 kts | 85° |
| 2026-05-05 05:07 | 33.27188 | -134.06631 | 39228 ft | 546 kts | 85° |
| 2026-05-05 05:08 | 33.27384 | -133.97575 | 39232 ft | 546 kts | 85° |
| 2026-05-05 05:08 | 33.27573 | -133.88505 | 39229 ft | 547 kts | 85° |
| 2026-05-05 05:09 | 33.27756 | -133.79426 | 39227 ft | 547 kts | 85° |
| 2026-05-05 05:09 | 33.27933 | -133.70322 | 39221 ft | 547 kts | 85° |
| 2026-05-05 05:10 | 33.28232 | -133.61243 | 39235 ft | 543 kts | 76° |
| 2026-05-05 05:10 | 33.29488 | -133.52352 | 39210 ft | 543 kts | 76° |
| 2026-05-05 05:11 | 33.30728 | -133.43460 | 39214 ft | 543 kts | 76° |
| 2026-05-05 05:11 | 33.31976 | -133.34544 | 39215 ft | 544 kts | 75° |
| 2026-05-05 05:12 | 33.33208 | -133.25637 | 39213 ft | 543 kts | 75° |
| 2026-05-05 05:12 | 33.34433 | -133.16774 | 39213 ft | 543 kts | 75° |
| 2026-05-05 05:13 | 33.35654 | -133.07867 | 39211 ft | 543 kts | 75° |
| 2026-05-05 05:13 | 33.36673 | -133.00409 | 39208 ft | 543 kts | 75° |
| 2026-05-05 05:14 | 33.37883 | -132.91502 | 39204 ft | 543 kts | 75° |
| 2026-05-05 05:14 | 33.39087 | -132.82579 | 39202 ft | 544 kts | 75° |
| 2026-05-05 05:15 | 33.40289 | -132.73639 | 39202 ft | 544 kts | 75° |
| 2026-05-05 05:15 | 33.41482 | -132.64702 | 39201 ft | 544 kts | 75° |
| 2026-05-05 05:16 | 33.42665 | -132.55794 | 39199 ft | 545 kts | 75° |
| 2026-05-05 05:16 | 33.43845 | -132.46858 | 39198 ft | 545 kts | 75° |
| 2026-05-05 05:17 | 33.45031 | -132.37825 | 39195 ft | 545 kts | 75° |
| 2026-05-05 05:17 | 33.46206 | -132.28827 | 39194 ft | 546 kts | 75° |
| 2026-05-05 05:18 | 33.47363 | -132.19911 | 39193 ft | 545 kts | 75° |
| 2026-05-05 05:18 | 33.48520 | -132.10950 | 39190 ft | 545 kts | 75° |
| 2026-05-05 05:19 | 33.49672 | -132.01964 | 39190 ft | 545 kts | 75° |
| 2026-05-05 05:19 | 33.50812 | -131.93024 | 39188 ft | 545 kts | 75° |
| 2026-05-05 05:20 | 33.51951 | -131.84039 | 39187 ft | 544 kts | 75° |
| 2026-05-05 05:20 | 33.53083 | -131.75059 | 39177 ft | 544 kts | 75° |
| 2026-05-05 05:21 | 33.54199 | -131.66148 | 39178 ft | 544 kts | 75° |
| 2026-05-05 05:21 | 33.55314 | -131.57198 | 39168 ft | 544 kts | 75° |
| 2026-05-05 05:22 | 33.56425 | -131.48221 | 39186 ft | 544 kts | 75° |
| 2026-05-05 05:22 | 33.57526 | -131.39268 | 39174 ft | 543 kts | 75° |
| 2026-05-05 05:23 | 33.58622 | -131.30302 | 39174 ft | 543 kts | 75° |
| 2026-05-05 05:23 | 33.59710 | -131.21351 | 39170 ft | 543 kts | 76° |
| 2026-05-05 05:24 | 33.60785 | -131.12444 | 39172 ft | 542 kts | 76° |
| 2026-05-05 05:24 | 33.61860 | -131.03493 | 39172 ft | 542 kts | 76° |
| 2026-05-05 05:25 | 33.62934 | -130.94481 | 39171 ft | 541 kts | 76° |
| 2026-05-05 05:25 | 33.63985 | -130.85617 | 39168 ft | 541 kts | 76° |
| 2026-05-05 05:26 | 33.65037 | -130.76685 | 39162 ft | 541 kts | 76° |
| 2026-05-05 05:26 | 33.66082 | -130.67750 | 39161 ft | 541 kts | 76° |
| 2026-05-05 05:27 | 33.67121 | -130.58815 | 39170 ft | 540 kts | 77° |
| 2026-05-05 05:27 | 33.68667 | -130.45411 | 39164 ft | 540 kts | 77° |
| 2026-05-05 05:28 | 33.69685 | -130.36514 | 39154 ft | 539 kts | 77° |
| 2026-05-05 05:28 | 33.70701 | -130.27573 | 39159 ft | 539 kts | 77° |
| 2026-05-05 05:29 | 33.71709 | -130.18648 | 39157 ft | 539 kts | 77° |
| 2026-05-05 05:29 | 33.72709 | -130.09734 | 39159 ft | 538 kts | 77° |
| 2026-05-05 05:30 | 33.73702 | -130.00824 | 39158 ft | 538 kts | 77° |
| 2026-05-05 05:30 | 33.74688 | -129.91914 | 39153 ft | 539 kts | 77° |
| 2026-05-05 05:31 | 33.75670 | -129.82979 | 39153 ft | 539 kts | 77° |
| 2026-05-05 05:31 | 33.76645 | -129.74049 | 39157 ft | 539 kts | 77° |
| 2026-05-05 05:32 | 33.77612 | -129.65132 | 39153 ft | 539 kts | 78° |
| 2026-05-05 05:32 | 33.78568 | -129.56255 | 39147 ft | 539 kts | 78° |
| 2026-05-05 05:33 | 33.79529 | -129.47269 | 39144 ft | 539 kts | 78° |
| 2026-05-05 05:33 | 33.80475 | -129.38367 | 39150 ft | 539 kts | 78° |
| 2026-05-05 05:34 | 33.81416 | -129.29443 | 39147 ft | 538 kts | 78° |
| 2026-05-05 05:34 | 33.82349 | -129.20537 | 39145 ft | 537 kts | 78° |
| 2026-05-05 05:35 | 33.83276 | -129.11622 | 39148 ft | 537 kts | 78° |
| 2026-05-05 05:35 | 33.84197 | -129.02695 | 39139 ft | 538 kts | 78° |
| 2026-05-05 05:36 | 33.85114 | -128.93754 | 39134 ft | 538 kts | 78° |
| 2026-05-05 05:36 | 33.86020 | -128.84848 | 39135 ft | 538 kts | 78° |
| 2026-05-05 05:37 | 33.86919 | -128.75910 | 39132 ft | 538 kts | 79° |
| 2026-05-05 05:37 | 33.87691 | -128.66958 | 39141 ft | 538 kts | 80° |
| 2026-05-05 05:38 | 33.88505 | -128.58023 | 39129 ft | 537 kts | 79° |
| 2026-05-05 05:38 | 33.89290 | -128.49082 | 39134 ft | 538 kts | 80° |
| 2026-05-05 05:39 | 33.90078 | -128.40115 | 39123 ft | 538 kts | 80° |
| 2026-05-05 05:39 | 33.90854 | -128.31210 | 39131 ft | 538 kts | 80° |
| 2026-05-05 05:40 | 33.91624 | -128.22264 | 39131 ft | 537 kts | 80° |
| 2026-05-05 05:40 | 33.92392 | -128.13317 | 39128 ft | 537 kts | 80° |
| 2026-05-05 05:41 | 33.93150 | -128.04361 | 39123 ft | 537 kts | 80° |
| 2026-05-05 05:41 | 33.93902 | -127.95421 | 39125 ft | 537 kts | 80° |
| 2026-05-05 05:42 | 33.94647 | -127.86474 | 39122 ft | 537 kts | 81° |
| 2026-05-05 05:42 | 33.95385 | -127.77548 | 39123 ft | 536 kts | 81° |
| 2026-05-05 05:43 | 33.96116 | -127.68608 | 39120 ft | 535 kts | 81° |
| 2026-05-05 05:43 | 33.96841 | -127.59681 | 39114 ft | 535 kts | 81° |
| 2026-05-05 05:44 | 33.97558 | -127.50766 | 39121 ft | 535 kts | 81° |
| 2026-05-05 05:44 | 33.98269 | -127.41846 | 39117 ft | 536 kts | 81° |
| 2026-05-05 05:45 | 33.98974 | -127.32902 | 39116 ft | 536 kts | 81° |
| 2026-05-05 05:45 | 33.99674 | -127.23961 | 39115 ft | 536 kts | 81° |
| 2026-05-05 05:46 | 34.00366 | -127.15012 | 39111 ft | 536 kts | 81° |
| 2026-05-05 05:46 | 34.01054 | -127.06055 | 39113 ft | 536 kts | 81° |
| 2026-05-05 05:47 | 34.01731 | -126.97138 | 39111 ft | 535 kts | 81° |
| 2026-05-05 05:47 | 34.02405 | -126.88182 | 39112 ft | 536 kts | 82° |
| 2026-05-05 05:48 | 34.03072 | -126.79234 | 39110 ft | 536 kts | 82° |
| 2026-05-05 05:48 | 34.03730 | -126.70310 | 39097 ft | 535 kts | 82° |
| 2026-05-05 05:49 | 34.04382 | -126.61379 | 39099 ft | 535 kts | 82° |
| 2026-05-05 05:49 | 34.05030 | -126.52419 | 39101 ft | 535 kts | 82° |
| 2026-05-05 05:50 | 34.05669 | -126.43496 | 39104 ft | 534 kts | 82° |
| 2026-05-05 05:50 | 34.06301 | -126.34569 | 39112 ft | 534 kts | 82° |
| 2026-05-05 05:51 | 34.06927 | -126.25640 | 39101 ft | 534 kts | 82° |
| 2026-05-05 05:51 | 34.07546 | -126.16717 | 39100 ft | 534 kts | 82° |
| 2026-05-05 05:52 | 34.08158 | -126.07796 | 39098 ft | 533 kts | 82° |
| 2026-05-05 05:52 | 34.08764 | -125.98879 | 39103 ft | 534 kts | 83° |
| 2026-05-05 05:53 | 34.09359 | -125.90017 | 39103 ft | 534 kts | 83° |
| 2026-05-05 05:53 | 34.09953 | -125.81074 | 39100 ft | 534 kts | 83° |
| 2026-05-05 05:54 | 34.10540 | -125.72147 | 39100 ft | 534 kts | 83° |
| 2026-05-05 05:54 | 34.11126 | -125.63132 | 39100 ft | 535 kts | 83° |
| 2026-05-05 05:55 | 34.11697 | -125.54238 | 39093 ft | 535 kts | 83° |
| 2026-05-05 05:55 | 34.12266 | -125.45287 | 39100 ft | 535 kts | 83° |
| 2026-05-05 05:56 | 34.12828 | -125.36325 | 39095 ft | 536 kts | 83° |
| 2026-05-05 05:56 | 34.13384 | -125.27362 | 39097 ft | 536 kts | 83° |
| 2026-05-05 05:57 | 34.13935 | -125.18382 | 39100 ft | 537 kts | 84° |
| 2026-05-05 05:57 | 34.14479 | -125.09394 | 39097 ft | 537 kts | 84° |
| 2026-05-05 05:58 | 34.15017 | -125.00394 | 39096 ft | 538 kts | 84° |
| 2026-05-05 05:58 | 34.15550 | -124.91379 | 39099 ft | 538 kts | 84° |
| 2026-05-05 05:59 | 34.16076 | -124.82365 | 39098 ft | 538 kts | 84° |
| 2026-05-05 05:59 | 34.16596 | -124.73350 | 39097 ft | 538 kts | 84° |
| 2026-05-05 06:00 | 34.17108 | -124.64344 | 39097 ft | 537 kts | 84° |
| 2026-05-05 06:00 | 34.17613 | -124.55340 | 39096 ft | 538 kts | 85° |
| 2026-05-05 06:01 | 34.18112 | -124.46336 | 39096 ft | 538 kts | 85° |
| 2026-05-05 06:01 | 34.18603 | -124.37346 | 39091 ft | 537 kts | 85° |
| 2026-05-05 06:02 | 34.19009 | -124.29850 | 39092 ft | 538 kts | 85° |
| 2026-05-05 06:02 | 34.19568 | -124.19342 | 39086 ft | 539 kts | 85° |
| 2026-05-05 06:03 | 34.20042 | -124.10308 | 39093 ft | 539 kts | 85° |
| 2026-05-05 06:03 | 34.20434 | -124.02731 | 39087 ft | 539 kts | 85° |
| 2026-05-05 06:04 | 34.20970 | -123.92243 | 39096 ft | 539 kts | 85° |
| 2026-05-05 06:04 | 34.21351 | -123.84660 | 39091 ft | 539 kts | 86° |
| 2026-05-05 06:05 | 34.21801 | -123.75593 | 39093 ft | 540 kts | 86° |
| 2026-05-05 06:05 | 34.22239 | -123.66624 | 39093 ft | 540 kts | 86° |
| 2026-05-05 06:06 | 34.22674 | -123.57592 | 39092 ft | 540 kts | 86° |
| 2026-05-05 06:06 | 34.23104 | -123.48530 | 39088 ft | 540 kts | 86° |
| 2026-05-05 06:07 | 34.23526 | -123.39488 | 39083 ft | 540 kts | 86° |
| 2026-05-05 06:07 | 34.23938 | -123.30510 | 39561 ft | 525 kts | 86° |
| 2026-05-05 06:08 | 34.24139 | -123.26158 | 41141 ft | 497 kts | 86° |
| 2026-05-05 06:08 | 34.24334 | -123.22130 | 42677 ft | 471 kts | 86° |
| 2026-05-05 06:08 | 34.24533 | -123.18267 | 43576 ft | 463 kts | 86° |
| 2026-05-05 06:08 | 34.24746 | -123.14329 | 43864 ft | 466 kts | 86° |
| 2026-05-05 06:09 | 34.24962 | -123.10451 | 44117 ft | 469 kts | 86° |
| 2026-05-05 06:09 | 34.25190 | -123.06472 | 44356 ft | 471 kts | 86° |
| 2026-05-05 06:09 | 34.25417 | -123.02572 | 44649 ft | 474 kts | 86° |
| 2026-05-05 06:09 | 34.25655 | -122.98567 | 44924 ft | 476 kts | 86° |
| 2026-05-05 06:10 | 34.25893 | -122.94597 | 45165 ft | 478 kts | 86° |
| 2026-05-05 06:10 | 34.26137 | -122.90552 | 45418 ft | 479 kts | 86° |
| 2026-05-05 06:10 | 34.26383 | -122.86498 | 45666 ft | 481 kts | 86° |
| 2026-05-05 06:10 | 34.26629 | -122.82458 | 45904 ft | 483 kts | 86° |
| 2026-05-05 06:11 | 34.26878 | -122.78397 | 46133 ft | 485 kts | 86° |
| 2026-05-05 06:11 | 34.27128 | -122.74326 | 46358 ft | 487 kts | 86° |
| 2026-05-05 06:11 | 34.27382 | -122.70209 | 46580 ft | 489 kts | 86° |
| 2026-05-05 06:11 | 34.27637 | -122.66117 | 46798 ft | 491 kts | 86° |
| 2026-05-05 06:12 | 34.27894 | -122.61999 | 47005 ft | 493 kts | 86° |
| 2026-05-05 06:12 | 34.28150 | -122.57900 | 47196 ft | 495 kts | 86° |
| 2026-05-05 06:12 | 34.28414 | -122.53706 | 47413 ft | 497 kts | 86° |
| 2026-05-05 06:12 | 34.28676 | -122.49572 | 47609 ft | 499 kts | 86° |
| 2026-05-05 06:13 | 34.28945 | -122.45340 | 47808 ft | 500 kts | 86° |
| 2026-05-05 06:13 | 34.29213 | -122.41147 | 47986 ft | 502 kts | 86° |
| 2026-05-05 06:13 | 34.29485 | -122.36905 | 48195 ft | 504 kts | 86° |
| 2026-05-05 06:13 | 34.29754 | -122.32731 | 48360 ft | 506 kts | 86° |
| 2026-05-05 06:14 | 34.30027 | -122.28491 | 48535 ft | 508 kts | 86° |
| 2026-05-05 06:14 | 34.30305 | -122.24174 | 48711 ft | 510 kts | 86° |
| 2026-05-05 06:14 | 34.30579 | -122.19934 | 48885 ft | 511 kts | 86° |
| 2026-05-05 06:14 | 34.30857 | -122.15643 | 49055 ft | 513 kts | 86° |
| 2026-05-05 06:15 | 34.31137 | -122.11337 | 49226 ft | 515 kts | 86° |
| 2026-05-05 06:15 | 34.31417 | -122.07015 | 49389 ft | 517 kts | 86° |
| 2026-05-05 06:15 | 34.31699 | -122.02692 | 49567 ft | 519 kts | 86° |
| 2026-05-05 06:15 | 34.31984 | -121.98317 | 49701 ft | 520 kts | 86° |
| 2026-05-05 06:16 | 34.32265 | -121.94029 | 49860 ft | 522 kts | 86° |
| 2026-05-05 06:16 | 34.32561 | -121.89518 | 50017 ft | 524 kts | 86° |
| 2026-05-05 06:16 | 34.32848 | -121.85168 | 50157 ft | 525 kts | 86° |
| 2026-05-05 06:16 | 34.33139 | -121.80744 | 50308 ft | 527 kts | 86° |
| 2026-05-05 06:17 | 34.33434 | -121.76267 | 49637 ft | 547 kts | 86° |
| 2026-05-05 06:17 | 34.33737 | -121.71665 | 49728 ft | 550 kts | 86° |
| 2026-05-05 06:17 | 34.34289 | -121.62382 | 49818 ft | 557 kts | 95° |
| 2026-05-05 06:18 | 34.33918 | -121.57725 | 50134 ft | 550 kts | 106° |
| 2026-05-05 06:18 | 34.32884 | -121.53329 | 50445 ft | 541 kts | 114° |
| 2026-05-05 06:18 | 34.31435 | -121.49113 | 50108 ft | 544 kts | 118° |
| 2026-05-05 06:18 | 34.29795 | -121.45004 | 49681 ft | 547 kts | 119° |
| 2026-05-05 06:19 | 34.28117 | -121.40864 | 49267 ft | 550 kts | 116° |
| 2026-05-05 06:19 | 34.26649 | -121.36584 | 48859 ft | 552 kts | 112° |
| 2026-05-05 06:19 | 34.25362 | -121.32204 | 48457 ft | 554 kts | 111° |
| 2026-05-05 06:19 | 34.24052 | -121.27841 | 47965 ft | 548 kts | 115° |
| 2026-05-05 06:20 | 34.22586 | -121.23635 | 47507 ft | 538 kts | 116° |
| 2026-05-05 06:20 | 34.21116 | -121.19490 | 47030 ft | 531 kts | 114° |
| 2026-05-05 06:20 | 34.19800 | -121.15424 | 46550 ft | 524 kts | 113° |
| 2026-05-05 06:20 | 34.18530 | -121.11391 | 46069 ft | 517 kts | 114° |
| 2026-05-05 06:21 | 34.17196 | -121.07399 | 45610 ft | 513 kts | 115° |
| 2026-05-05 06:21 | 34.15812 | -121.03386 | 45230 ft | 523 kts | 115° |
| 2026-05-05 06:21 | 34.14620 | -120.99183 | 44874 ft | 534 kts | 103° |
| 2026-05-05 06:21 | 34.14098 | -120.94769 | 44569 ft | 540 kts | 92° |
| 2026-05-05 06:22 | 34.14179 | -120.90205 | 44219 ft | 543 kts | 89° |
| 2026-05-05 06:22 | 34.14346 | -120.85615 | 43786 ft | 545 kts | 89° |
| 2026-05-05 06:22 | 34.14487 | -120.81044 | 43368 ft | 547 kts | 89° |
| 2026-05-05 06:22 | 34.14612 | -120.76466 | 42949 ft | 549 kts | 89° |
| 2026-05-05 06:23 | 34.14749 | -120.71833 | 42527 ft | 551 kts | 89° |
| 2026-05-05 06:23 | 34.14898 | -120.67193 | 42112 ft | 553 kts | 89° |
| 2026-05-05 06:23 | 34.15037 | -120.62564 | 41699 ft | 554 kts | 90° |
| 2026-05-05 06:23 | 34.15165 | -120.57970 | 41298 ft | 556 kts | 90° |
| 2026-05-05 06:24 | 34.15297 | -120.53251 | 40897 ft | 557 kts | 90° |
| 2026-05-05 06:24 | 34.15434 | -120.48567 | 40765 ft | 552 kts | 90° |
| 2026-05-05 06:24 | 34.15690 | -120.39323 | 40782 ft | 560 kts | 90° |
| 2026-05-05 06:25 | 34.15816 | -120.34601 | 40130 ft | 559 kts | 90° |
| 2026-05-05 06:25 | 34.15945 | -120.29938 | 39454 ft | 550 kts | 90° |
| 2026-05-05 06:25 | 34.16069 | -120.25375 | 38798 ft | 542 kts | 91° |
| 2026-05-05 06:25 | 34.16184 | -120.20844 | 38034 ft | 534 kts | 91° |
| 2026-05-05 06:26 | 34.16295 | -120.16414 | 37283 ft | 526 kts | 91° |
| 2026-05-05 06:26 | 34.16408 | -120.12022 | 36556 ft | 521 kts | 91° |
| 2026-05-05 06:26 | 34.16517 | -120.07656 | 35896 ft | 527 kts | 91° |
| 2026-05-05 06:26 | 34.16624 | -120.03164 | 35266 ft | 542 kts | 91° |
| 2026-05-05 06:27 | 34.16735 | -119.98590 | 34651 ft | 548 kts | 91° |
| 2026-05-05 06:27 | 34.16958 | -119.89374 | 33336 ft | 555 kts | 91° |
| 2026-05-05 06:27 | 34.17064 | -119.84691 | 32625 ft | 558 kts | 90° |
| 2026-05-05 06:28 | 34.17171 | -119.79949 | 31920 ft | 558 kts | 90° |
| 2026-05-05 06:28 | 34.17278 | -119.75271 | 31232 ft | 554 kts | 90° |
| 2026-05-05 06:28 | 34.17380 | -119.70777 | 30523 ft | 534 kts | 90° |
| 2026-05-05 06:28 | 34.17475 | -119.66372 | 29746 ft | 515 kts | 90° |
| 2026-05-05 06:29 | 34.17565 | -119.62061 | 28912 ft | 499 kts | 91° |
| 2026-05-05 06:29 | 34.17649 | -119.57981 | 28095 ft | 486 kts | 91° |
| 2026-05-05 06:29 | 34.17733 | -119.53949 | 27321 ft | 478 kts | 91° |
| 2026-05-05 06:29 | 34.17813 | -119.49938 | 26560 ft | 476 kts | 91° |
| 2026-05-05 06:30 | 34.17892 | -119.45965 | 25861 ft | 476 kts | 91° |
| 2026-05-05 06:30 | 34.17970 | -119.41926 | 25163 ft | 485 kts | 90° |
| 2026-05-05 06:30 | 34.18050 | -119.37771 | 24496 ft | 490 kts | 90° |
| 2026-05-05 06:30 | 34.18129 | -119.33706 | 23848 ft | 489 kts | 90° |
| 2026-05-05 06:31 | 34.18206 | -119.29699 | 23069 ft | 469 kts | 90° |
| 2026-05-05 06:31 | 34.18278 | -119.25833 | 22267 ft | 452 kts | 90° |
| 2026-05-05 06:31 | 34.18343 | -119.22104 | 21483 ft | 439 kts | 91° |
| 2026-05-05 06:31 | 34.18406 | -119.18453 | 20719 ft | 431 kts | 91° |
| 2026-05-05 06:32 | 34.18469 | -119.14844 | 19972 ft | 429 kts | 91° |
| 2026-05-05 06:32 | 34.18531 | -119.11248 | 19267 ft | 426 kts | 90° |
| 2026-05-05 06:32 | 34.18486 | -119.07692 | 18580 ft | 420 kts | 100° |
| 2026-05-05 06:32 | 34.17792 | -119.04311 | 17862 ft | 414 kts | 114° |
| 2026-05-05 06:33 | 34.16594 | -119.01180 | 17115 ft | 408 kts | 117° |
| 2026-05-05 06:33 | 34.15417 | -118.98136 | 16385 ft | 406 kts | 117° |
| 2026-05-05 06:33 | 34.14224 | -118.95058 | 15657 ft | 401 kts | 117° |
| 2026-05-05 06:33 | 34.13038 | -118.92037 | 14938 ft | 398 kts | 117° |
| 2026-05-05 06:34 | 34.11891 | -118.89121 | 14265 ft | 394 kts | 117° |
| 2026-05-05 06:34 | 34.10843 | -118.86444 | 13625 ft | 391 kts | 117° |
| 2026-05-05 06:34 | 34.09687 | -118.83491 | 12865 ft | 387 kts | 117° |
| 2026-05-05 06:34 | 34.08544 | -118.80580 | 12120 ft | 382 kts | 116° |
| 2026-05-05 06:35 | 34.07397 | -118.77661 | 11386 ft | 377 kts | 116° |
| 2026-05-05 06:35 | 34.06220 | -118.74669 | 10642 ft | 372 kts | 116° |
| 2026-05-05 06:35 | 34.05191 | -118.72046 | 10003 ft | 369 kts | 116° |
| 2026-05-05 06:35 | 34.04103 | -118.69266 | 9238 ft | 363 kts | 116° |
| 2026-05-05 06:36 | 34.03092 | -118.66519 | 8490 ft | 355 kts | 109° |
| 2026-05-05 06:36 | 34.02731 | -118.63592 | 7769 ft | 350 kts | 95° |
| 2026-05-05 06:36 | 34.02468 | -118.60718 | 7066 ft | 348 kts | 98° |
| 2026-05-05 06:36 | 34.02152 | -118.57817 | 6335 ft | 342 kts | 98° |
| 2026-05-05 06:37 | 34.01882 | -118.55032 | 5608 ft | 339 kts | 97° |
| 2026-05-05 06:37 | 34.01632 | -118.52219 | 4880 ft | 335 kts | 97° |
| 2026-05-05 06:37 | 34.01392 | -118.49610 | 4195 ft | 333 kts | 97° |
| 2026-05-05 06:37 | 34.01133 | -118.46907 | 4001 ft | 313 kts | 96° |
| 2026-05-05 06:38 | 34.01248 | -118.44470 | 3996 ft | 276 kts | 75° |
| 2026-05-05 06:38 | 34.01656 | -118.42344 | 3973 ft | 246 kts | 81° |
| 2026-05-05 06:38 | 34.01934 | -118.40400 | 3975 ft | 232 kts | 80° |
| 2026-05-05 06:38 | 34.02209 | -118.38523 | 3992 ft | 233 kts | 80° |
| 2026-05-05 06:39 | 34.02486 | -118.36627 | 3988 ft | 228 kts | 80° |
| 2026-05-05 06:39 | 34.02753 | -118.34785 | 3988 ft | 228 kts | 81° |
| 2026-05-05 06:39 | 34.03023 | -118.32916 | 3996 ft | 227 kts | 81° |
| 2026-05-05 06:39 | 34.03295 | -118.31047 | 4030 ft | 224 kts | 80° |
| 2026-05-05 06:40 | 34.03570 | -118.29173 | 4015 ft | 226 kts | 80° |
| 2026-05-05 06:40 | 34.03841 | -118.27317 | 4007 ft | 226 kts | 80° |
| 2026-05-05 06:40 | 34.04112 | -118.25445 | 4006 ft | 227 kts | 80° |
| 2026-05-05 06:40 | 34.04375 | -118.23631 | 4006 ft | 226 kts | 80° |
| 2026-05-05 06:41 | 34.04648 | -118.21762 | 4009 ft | 227 kts | 80° |
| 2026-05-05 06:41 | 34.04916 | -118.19925 | 4003 ft | 227 kts | 80° |
| 2026-05-05 06:41 | 34.05192 | -118.18017 | 3999 ft | 224 kts | 81° |
| 2026-05-05 06:41 | 34.05450 | -118.16246 | 3980 ft | 210 kts | 81° |
| 2026-05-05 06:42 | 34.05695 | -118.14576 | 3981 ft | 197 kts | 81° |
| 2026-05-05 06:42 | 34.05900 | -118.13010 | 3952 ft | 185 kts | 88° |
| 2026-05-05 06:42 | 34.05423 | -118.11696 | 3914 ft | 170 kts | 145° |
| 2026-05-05 06:42 | 34.04366 | -118.11414 | 3972 ft | 161 kts | 189° |
| 2026-05-05 06:43 | 34.03238 | -118.11599 | 4009 ft | 166 kts | 188° |
| 2026-05-05 06:43 | 34.02098 | -118.11731 | 4010 ft | 164 kts | 186° |
| 2026-05-05 06:43 | 34.00953 | -118.11789 | 4005 ft | 163 kts | 183° |
| 2026-05-05 06:43 | 33.99828 | -118.11806 | 4006 ft | 162 kts | 182° |
| 2026-05-05 06:44 | 33.98725 | -118.12028 | 3926 ft | 162 kts | 212° |
| 2026-05-05 06:44 | 33.98084 | -118.13067 | 3958 ft | 157 kts | 253° |
| 2026-05-05 06:44 | 33.97918 | -118.14368 | 4003 ft | 160 kts | 257° |
| 2026-05-05 06:44 | 33.97731 | -118.15686 | 4005 ft | 158 kts | 262° |
| 2026-05-05 06:45 | 33.97584 | -118.16956 | 3967 ft | 162 kts | 262° |
| 2026-05-05 06:45 | 33.97446 | -118.18286 | 3763 ft | 162 kts | 262° |
| 2026-05-05 06:45 | 33.97308 | -118.19631 | 3544 ft | 158 kts | 262° |
| 2026-05-05 06:45 | 33.97175 | -118.20930 | 3333 ft | 157 kts | 263° |
| 2026-05-05 06:46 | 33.97043 | -118.22228 | 3122 ft | 157 kts | 263° |
| 2026-05-05 06:46 | 33.96912 | -118.23518 | 2915 ft | 155 kts | 263° |
| 2026-05-05 06:46 | 33.96782 | -118.24794 | 2703 ft | 155 kts | 263° |
| 2026-05-05 06:46 | 33.96649 | -118.26093 | 2491 ft | 155 kts | 263° |
| 2026-05-05 06:47 | 33.96521 | -118.27351 | 2280 ft | 155 kts | 263° |
| 2026-05-05 06:47 | 33.96393 | -118.28606 | 2091 ft | 154 kts | 263° |
| 2026-05-05 06:47 | 33.96277 | -118.29744 | 1902 ft | 154 kts | 263° |
| 2026-05-05 06:47 | 33.96164 | -118.30847 | 1725 ft | 153 kts | 263° |
| 2026-05-05 06:48 | 33.96050 | -118.31966 | 1516 ft | 152 kts | 263° |
| 2026-05-05 06:48 | 33.95923 | -118.33217 | 1332 ft | 153 kts | 263° |
| 2026-05-05 06:48 | 33.95803 | -118.34395 | 1125 ft | 153 kts | 263° |
| 2026-05-05 06:48 | 33.95683 | -118.35596 | 975 ft | 155 kts | 258° |
| 2026-05-05 06:49 | 33.95577 | -118.36899 | 684 ft | 156 kts | 261° |
| 2026-05-05 06:49 | 33.95425 | -118.38140 | 402 ft | 149 kts | 259° |
| 2026-05-05 06:49 | 33.95299 | -118.39339 | 208 ft | 146 kts | 261° |
| 2026-05-05 06:49 | 33.95171 | -118.40529 | 117 ft | 136 kts | 262° |
| 2026-05-05 06:50 | 33.95069 | -118.41551 | 114 ft | 105 kts | 264° |
| 2026-05-05 06:50 | 33.95008 | -118.42176 | 112 ft | 42 kts | 263° |
| 2026-05-05 06:50 | 33.94956 | -118.42506 | 110 ft | 38 kts | 244° |
| 2026-05-05 06:50 | 33.94833 | -118.42700 | 111 ft | 0 kts | 220° |
| 2026-05-05 06:53 | 33.94819 | -118.42714 | 111 ft | 4 kts | 218° |
| 2026-05-05 06:53 | 33.94791 | -118.42736 | 110 ft | 5 kts | 211° |
| 2026-05-05 06:53 | 33.94747 | -118.42761 | 111 ft | 9 kts | 200° |
| 2026-05-05 06:54 | 33.94667 | -118.42778 | 108 ft | 16 kts | 183° |
| 2026-05-05 06:54 | 33.94558 | -118.42736 | 103 ft | 11 kts | 124° |
| 2026-05-05 06:54 | 33.94557 | -118.42662 | 103 ft | 10 kts | 78° |
| 2026-05-05 06:54 | 33.94574 | -118.42556 | 104 ft | 16 kts | 81° |
| 2026-05-05 06:55 | 33.94594 | -118.42400 | 103 ft | 22 kts | 84° |
| 2026-05-05 06:55 | 33.94611 | -118.42197 | 104 ft | 28 kts | 84° |
| 2026-05-05 06:55 | 33.94627 | -118.41952 | 104 ft | 33 kts | 88° |
| 2026-05-05 06:55 | 33.94651 | -118.41660 | 101 ft | 38 kts | 81° |
| 2026-05-05 06:56 | 33.94667 | -118.41402 | 103 ft | 14 kts | 122° |
| 2026-05-05 06:56 | 33.94579 | -118.41362 | 101 ft | 15 kts | 173° |
| 2026-05-05 06:56 | 33.94475 | -118.41349 | 102 ft | 17 kts | 175° |
| 2026-05-05 06:56 | 33.94340 | -118.41331 | 101 ft | 22 kts | 172° |
| 2026-05-05 06:57 | 33.94260 | -118.41274 | 101 ft | 11 kts | 114° |
| 2026-05-05 06:57 | 33.94206 | -118.41215 | 101 ft | 10 kts | 163° |
| 2026-05-05 06:57 | 33.94178 | -118.41196 | 102 ft | 1 kts | 119° |
| 2026-05-05 06:57 | 33.94174 | -118.41174 | 103 ft | 5 kts | 101° |
| 2026-05-05 06:58 | 33.94174 | -118.41124 | 104 ft | 7 kts | 84° |
| 2026-05-05 06:58 | 33.94177 | -118.41099 | 102 ft | 0 kts | 83° |
| 2026-05-05 06:58 | 33.94177 | -118.41096 | 101 ft | 0 kts | 83° |
| 2026-05-05 06:58 | 33.94177 | -118.41095 | 101 ft | 0 kts | 83° |